<?xml version="1.0" encoding="UTF-8" standalone="no" ?>
<gpx xmlns="http://www.topografix.com/GPX/1/1" xmlns:xsi="http://www.w3.org/2001/XMLSchema-instance" xsi:schemaLocation="http://www.topografix.com/GPX/1/1 http://www.topografix.com/GPX/1/1/gpx.xsd" version="1.1" creator="VisuGPX - https://www.visugpx.com">
  <metadata>
    <name>vetathlon roquevaire 2009</name>
    <desc><![CDATA[vetathlon roquevaire 2009]]></desc>
  </metadata>
  <trk>
    <name><![CDATA[2009-11-22T07_3]]></name>
    <trkseg>
      <trkpt lat="43.34957" lon="5.59975">
        <ele>163.0808105</ele>
        <time>2009-11-22T07:31:28Z</time>
      </trkpt>
      <trkpt lat="43.34967" lon="5.59984">
        <ele>163.0808105</ele>
        <time>2009-11-22T07:31:32Z</time>
      </trkpt>
      <trkpt lat="43.34979" lon="5.59988">
        <ele>163.0808105</ele>
        <time>2009-11-22T07:31:35Z</time>
      </trkpt>
      <trkpt lat="43.35005" lon="5.59997">
        <ele>163.0808105</ele>
        <time>2009-11-22T07:31:41Z</time>
      </trkpt>
      <trkpt lat="43.35017" lon="5.60002">
        <ele>163.5615234</ele>
        <time>2009-11-22T07:31:44Z</time>
      </trkpt>
      <trkpt lat="43.35024" lon="5.60005">
        <ele>164.0421143</ele>
        <time>2009-11-22T07:31:46Z</time>
      </trkpt>
      <trkpt lat="43.3504" lon="5.60012">
        <ele>163.5615234</ele>
        <time>2009-11-22T07:31:50Z</time>
      </trkpt>
      <trkpt lat="43.35062" lon="5.60014">
        <ele>163.5615234</ele>
        <time>2009-11-22T07:31:56Z</time>
      </trkpt>
      <trkpt lat="43.35072" lon="5.6">
        <ele>163.5615234</ele>
        <time>2009-11-22T07:32:00Z</time>
      </trkpt>
      <trkpt lat="43.35064" lon="5.59982">
        <ele>161.638916</ele>
        <time>2009-11-22T07:32:04Z</time>
      </trkpt>
      <trkpt lat="43.35044" lon="5.59968">
        <ele>160.6774902</ele>
        <time>2009-11-22T07:32:09Z</time>
      </trkpt>
      <trkpt lat="43.3503" lon="5.59957">
        <ele>161.1582031</ele>
        <time>2009-11-22T07:32:13Z</time>
      </trkpt>
      <trkpt lat="43.35023" lon="5.59951">
        <ele>160.6774902</ele>
        <time>2009-11-22T07:32:15Z</time>
      </trkpt>
      <trkpt lat="43.34993" lon="5.59932">
        <ele>160.1968994</ele>
        <time>2009-11-22T07:32:23Z</time>
      </trkpt>
      <trkpt lat="43.34982" lon="5.59927">
        <ele>159.7161865</ele>
        <time>2009-11-22T07:32:26Z</time>
      </trkpt>
      <trkpt lat="43.34956" lon="5.59915">
        <ele>158.2741699</ele>
        <time>2009-11-22T07:32:33Z</time>
      </trkpt>
      <trkpt lat="43.34939" lon="5.59905">
        <ele>157.7935791</ele>
        <time>2009-11-22T07:32:38Z</time>
      </trkpt>
      <trkpt lat="43.34916" lon="5.59896">
        <ele>155.3902588</ele>
        <time>2009-11-22T07:32:45Z</time>
      </trkpt>
      <trkpt lat="43.34899" lon="5.59888">
        <ele>154.4289551</ele>
        <time>2009-11-22T07:32:50Z</time>
      </trkpt>
      <trkpt lat="43.34885" lon="5.59883">
        <ele>153.4676514</ele>
        <time>2009-11-22T07:32:54Z</time>
      </trkpt>
      <trkpt lat="43.34863" lon="5.59874">
        <ele>153.9483643</ele>
        <time>2009-11-22T07:33:00Z</time>
      </trkpt>
      <trkpt lat="43.34844" lon="5.59868">
        <ele>155.8709717</ele>
        <time>2009-11-22T07:33:05Z</time>
      </trkpt>
      <trkpt lat="43.34829" lon="5.59863">
        <ele>156.8321533</ele>
        <time>2009-11-22T07:33:09Z</time>
      </trkpt>
      <trkpt lat="43.34812" lon="5.59855">
        <ele>156.8321533</ele>
        <time>2009-11-22T07:33:14Z</time>
      </trkpt>
      <trkpt lat="43.34797" lon="5.59848">
        <ele>157.3128662</ele>
        <time>2009-11-22T07:33:18Z</time>
      </trkpt>
      <trkpt lat="43.34779" lon="5.59842">
        <ele>157.7935791</ele>
        <time>2009-11-22T07:33:23Z</time>
      </trkpt>
      <trkpt lat="43.34761" lon="5.59833">
        <ele>155.8709717</ele>
        <time>2009-11-22T07:33:28Z</time>
      </trkpt>
      <trkpt lat="43.34741" lon="5.59825">
        <ele>156.8321533</ele>
        <time>2009-11-22T07:33:33Z</time>
      </trkpt>
      <trkpt lat="43.34726" lon="5.59819">
        <ele>156.8321533</ele>
        <time>2009-11-22T07:33:37Z</time>
      </trkpt>
      <trkpt lat="43.34707" lon="5.59812">
        <ele>157.3128662</ele>
        <time>2009-11-22T07:33:42Z</time>
      </trkpt>
      <trkpt lat="43.34694" lon="5.59806">
        <ele>157.3128662</ele>
        <time>2009-11-22T07:33:46Z</time>
      </trkpt>
      <trkpt lat="43.34676" lon="5.59796">
        <ele>156.8321533</ele>
        <time>2009-11-22T07:33:51Z</time>
      </trkpt>
      <trkpt lat="43.34658" lon="5.59788">
        <ele>156.3515625</ele>
        <time>2009-11-22T07:33:56Z</time>
      </trkpt>
      <trkpt lat="43.3464" lon="5.59779">
        <ele>153.9483643</ele>
        <time>2009-11-22T07:34:01Z</time>
      </trkpt>
      <trkpt lat="43.34618" lon="5.59769">
        <ele>150.1030273</ele>
        <time>2009-11-22T07:34:07Z</time>
      </trkpt>
      <trkpt lat="43.346" lon="5.59768">
        <ele>149.6223145</ele>
        <time>2009-11-22T07:34:12Z</time>
      </trkpt>
      <trkpt lat="43.34585" lon="5.5977">
        <ele>149.1416016</ele>
        <time>2009-11-22T07:34:17Z</time>
      </trkpt>
      <trkpt lat="43.34563" lon="5.59776">
        <ele>150.5836182</ele>
        <time>2009-11-22T07:34:23Z</time>
      </trkpt>
      <trkpt lat="43.34548" lon="5.59775">
        <ele>150.5836182</ele>
        <time>2009-11-22T07:34:27Z</time>
      </trkpt>
      <trkpt lat="43.34529" lon="5.59774">
        <ele>151.5449219</ele>
        <time>2009-11-22T07:34:32Z</time>
      </trkpt>
      <trkpt lat="43.34514" lon="5.59774">
        <ele>152.9869385</ele>
        <time>2009-11-22T07:34:36Z</time>
      </trkpt>
      <trkpt lat="43.34495" lon="5.59775">
        <ele>155.8709717</ele>
        <time>2009-11-22T07:34:41Z</time>
      </trkpt>
      <trkpt lat="43.34472" lon="5.59777">
        <ele>155.8709717</ele>
        <time>2009-11-22T07:34:47Z</time>
      </trkpt>
      <trkpt lat="43.34452" lon="5.59781">
        <ele>156.8321533</ele>
        <time>2009-11-22T07:34:52Z</time>
      </trkpt>
      <trkpt lat="43.34435" lon="5.59782">
        <ele>157.3128662</ele>
        <time>2009-11-22T07:34:56Z</time>
      </trkpt>
      <trkpt lat="43.34431" lon="5.59782">
        <ele>157.3128662</ele>
        <time>2009-11-22T07:34:57Z</time>
      </trkpt>
      <trkpt lat="43.34411" lon="5.59784">
        <ele>156.3515625</ele>
        <time>2009-11-22T07:35:02Z</time>
      </trkpt>
      <trkpt lat="43.34396" lon="5.59782">
        <ele>154.9095459</ele>
        <time>2009-11-22T07:35:06Z</time>
      </trkpt>
      <trkpt lat="43.34371" lon="5.59775">
        <ele>153.4676514</ele>
        <time>2009-11-22T07:35:12Z</time>
      </trkpt>
      <trkpt lat="43.34363" lon="5.59771">
        <ele>152.9869385</ele>
        <time>2009-11-22T07:35:14Z</time>
      </trkpt>
      <trkpt lat="43.34343" lon="5.5976">
        <ele>150.1030273</ele>
        <time>2009-11-22T07:35:19Z</time>
      </trkpt>
      <trkpt lat="43.34328" lon="5.59751">
        <ele>150.5836182</ele>
        <time>2009-11-22T07:35:23Z</time>
      </trkpt>
      <trkpt lat="43.34307" lon="5.59738">
        <ele>148.1804199</ele>
        <time>2009-11-22T07:35:29Z</time>
      </trkpt>
      <trkpt lat="43.34284" lon="5.59724">
        <ele>146.7384033</ele>
        <time>2009-11-22T07:35:35Z</time>
      </trkpt>
      <trkpt lat="43.34277" lon="5.5972">
        <ele>146.7384033</ele>
        <time>2009-11-22T07:35:37Z</time>
      </trkpt>
      <trkpt lat="43.34257" lon="5.59703">
        <ele>147.699707</ele>
        <time>2009-11-22T07:35:43Z</time>
      </trkpt>
      <trkpt lat="43.34236" lon="5.59686">
        <ele>150.1030273</ele>
        <time>2009-11-22T07:35:49Z</time>
      </trkpt>
      <trkpt lat="43.34217" lon="5.59668">
        <ele>151.5449219</ele>
        <time>2009-11-22T07:35:55Z</time>
      </trkpt>
      <trkpt lat="43.34198" lon="5.59649">
        <ele>151.5449219</ele>
        <time>2009-11-22T07:36:01Z</time>
      </trkpt>
      <trkpt lat="43.34186" lon="5.59637">
        <ele>151.064209</ele>
        <time>2009-11-22T07:36:05Z</time>
      </trkpt>
      <trkpt lat="43.34163" lon="5.59615">
        <ele>150.1030273</ele>
        <time>2009-11-22T07:36:12Z</time>
      </trkpt>
      <trkpt lat="43.34144" lon="5.59595">
        <ele>151.064209</ele>
        <time>2009-11-22T07:36:18Z</time>
      </trkpt>
      <trkpt lat="43.34127" lon="5.59581">
        <ele>152.0257568</ele>
        <time>2009-11-22T07:36:23Z</time>
      </trkpt>
      <trkpt lat="43.34106" lon="5.59565">
        <ele>151.5449219</ele>
        <time>2009-11-22T07:36:29Z</time>
      </trkpt>
      <trkpt lat="43.34089" lon="5.59553">
        <ele>151.064209</ele>
        <time>2009-11-22T07:36:34Z</time>
      </trkpt>
      <trkpt lat="43.34072" lon="5.59542">
        <ele>150.1030273</ele>
        <time>2009-11-22T07:36:39Z</time>
      </trkpt>
      <trkpt lat="43.34053" lon="5.59532">
        <ele>149.1416016</ele>
        <time>2009-11-22T07:36:44Z</time>
      </trkpt>
      <trkpt lat="43.3404" lon="5.59527">
        <ele>147.2189941</ele>
        <time>2009-11-22T07:36:48Z</time>
      </trkpt>
      <trkpt lat="43.34024" lon="5.5952">
        <ele>145.2963867</ele>
        <time>2009-11-22T07:36:53Z</time>
      </trkpt>
      <trkpt lat="43.34" lon="5.59516">
        <ele>145.2963867</ele>
        <time>2009-11-22T07:36:59Z</time>
      </trkpt>
      <trkpt lat="43.33983" lon="5.59517">
        <ele>147.2189941</ele>
        <time>2009-11-22T07:37:03Z</time>
      </trkpt>
      <trkpt lat="43.3397" lon="5.59516">
        <ele>147.699707</ele>
        <time>2009-11-22T07:37:06Z</time>
      </trkpt>
      <trkpt lat="43.33951" lon="5.59516">
        <ele>147.2189941</ele>
        <time>2009-11-22T07:37:11Z</time>
      </trkpt>
      <trkpt lat="43.33927" lon="5.59516">
        <ele>146.7384033</ele>
        <time>2009-11-22T07:37:17Z</time>
      </trkpt>
      <trkpt lat="43.33907" lon="5.59515">
        <ele>146.7384033</ele>
        <time>2009-11-22T07:37:22Z</time>
      </trkpt>
      <trkpt lat="43.33887" lon="5.59516">
        <ele>147.699707</ele>
        <time>2009-11-22T07:37:27Z</time>
      </trkpt>
      <trkpt lat="43.33867" lon="5.59519">
        <ele>148.1804199</ele>
        <time>2009-11-22T07:37:32Z</time>
      </trkpt>
      <trkpt lat="43.33842" lon="5.59522">
        <ele>149.1416016</ele>
        <time>2009-11-22T07:37:38Z</time>
      </trkpt>
      <trkpt lat="43.3383" lon="5.59523">
        <ele>149.1416016</ele>
        <time>2009-11-22T07:37:41Z</time>
      </trkpt>
      <trkpt lat="43.33814" lon="5.59527">
        <ele>149.1416016</ele>
        <time>2009-11-22T07:37:45Z</time>
      </trkpt>
      <trkpt lat="43.33807" lon="5.59528">
        <ele>149.6223145</ele>
        <time>2009-11-22T07:37:47Z</time>
      </trkpt>
      <trkpt lat="43.33784" lon="5.59528">
        <ele>151.5449219</ele>
        <time>2009-11-22T07:37:53Z</time>
      </trkpt>
      <trkpt lat="43.33766" lon="5.5953">
        <ele>153.4676514</ele>
        <time>2009-11-22T07:37:58Z</time>
      </trkpt>
      <trkpt lat="43.33751" lon="5.59529">
        <ele>154.9095459</ele>
        <time>2009-11-22T07:38:02Z</time>
      </trkpt>
      <trkpt lat="43.33728" lon="5.59529">
        <ele>153.9483643</ele>
        <time>2009-11-22T07:38:08Z</time>
      </trkpt>
      <trkpt lat="43.33709" lon="5.5953">
        <ele>154.9095459</ele>
        <time>2009-11-22T07:38:13Z</time>
      </trkpt>
      <trkpt lat="43.3369" lon="5.59531">
        <ele>157.7935791</ele>
        <time>2009-11-22T07:38:18Z</time>
      </trkpt>
      <trkpt lat="43.33671" lon="5.59533">
        <ele>158.7547607</ele>
        <time>2009-11-22T07:38:23Z</time>
      </trkpt>
      <trkpt lat="43.33652" lon="5.59533">
        <ele>159.2354736</ele>
        <time>2009-11-22T07:38:28Z</time>
      </trkpt>
      <trkpt lat="43.3363" lon="5.59535">
        <ele>160.6774902</ele>
        <time>2009-11-22T07:38:34Z</time>
      </trkpt>
      <trkpt lat="43.33604" lon="5.59534">
        <ele>156.3515625</ele>
        <time>2009-11-22T07:38:41Z</time>
      </trkpt>
      <trkpt lat="43.33588" lon="5.59535">
        <ele>155.3902588</ele>
        <time>2009-11-22T07:38:45Z</time>
      </trkpt>
      <trkpt lat="43.33569" lon="5.59537">
        <ele>153.4676514</ele>
        <time>2009-11-22T07:38:50Z</time>
      </trkpt>
      <trkpt lat="43.3355" lon="5.5954">
        <ele>151.064209</ele>
        <time>2009-11-22T07:38:55Z</time>
      </trkpt>
      <trkpt lat="43.33529" lon="5.59542">
        <ele>149.6223145</ele>
        <time>2009-11-22T07:39:00Z</time>
      </trkpt>
      <trkpt lat="43.33506" lon="5.59543">
        <ele>147.699707</ele>
        <time>2009-11-22T07:39:06Z</time>
      </trkpt>
      <trkpt lat="43.33486" lon="5.59543">
        <ele>147.699707</ele>
        <time>2009-11-22T07:39:11Z</time>
      </trkpt>
      <trkpt lat="43.33466" lon="5.59544">
        <ele>146.2578125</ele>
        <time>2009-11-22T07:39:16Z</time>
      </trkpt>
      <trkpt lat="43.33447" lon="5.59545">
        <ele>146.2578125</ele>
        <time>2009-11-22T07:39:21Z</time>
      </trkpt>
      <trkpt lat="43.33431" lon="5.59545">
        <ele>146.2578125</ele>
        <time>2009-11-22T07:39:25Z</time>
      </trkpt>
      <trkpt lat="43.33408" lon="5.59543">
        <ele>146.7384033</ele>
        <time>2009-11-22T07:39:31Z</time>
      </trkpt>
      <trkpt lat="43.33385" lon="5.59541">
        <ele>147.2189941</ele>
        <time>2009-11-22T07:39:37Z</time>
      </trkpt>
      <trkpt lat="43.3337" lon="5.59538">
        <ele>148.1804199</ele>
        <time>2009-11-22T07:39:41Z</time>
      </trkpt>
      <trkpt lat="43.33347" lon="5.59534">
        <ele>148.6610107</ele>
        <time>2009-11-22T07:39:47Z</time>
      </trkpt>
      <trkpt lat="43.33325" lon="5.5953">
        <ele>147.699707</ele>
        <time>2009-11-22T07:39:53Z</time>
      </trkpt>
      <trkpt lat="43.33303" lon="5.59526">
        <ele>147.699707</ele>
        <time>2009-11-22T07:39:59Z</time>
      </trkpt>
      <trkpt lat="43.3328" lon="5.59524">
        <ele>150.1030273</ele>
        <time>2009-11-22T07:40:05Z</time>
      </trkpt>
      <trkpt lat="43.33262" lon="5.59521">
        <ele>149.1416016</ele>
        <time>2009-11-22T07:40:10Z</time>
      </trkpt>
      <trkpt lat="43.33246" lon="5.59512">
        <ele>149.1416016</ele>
        <time>2009-11-22T07:40:15Z</time>
      </trkpt>
      <trkpt lat="43.33242" lon="5.59493">
        <ele>149.1416016</ele>
        <time>2009-11-22T07:40:19Z</time>
      </trkpt>
      <trkpt lat="43.33242" lon="5.59476">
        <ele>149.1416016</ele>
        <time>2009-11-22T07:40:23Z</time>
      </trkpt>
      <trkpt lat="43.33233" lon="5.59461">
        <ele>150.1030273</ele>
        <time>2009-11-22T07:40:28Z</time>
      </trkpt>
      <trkpt lat="43.33248" lon="5.59443">
        <ele>136.1639404</ele>
        <time>2009-11-22T07:40:32Z</time>
      </trkpt>
      <trkpt lat="43.33253" lon="5.59439">
        <ele>132.3186035</ele>
        <time>2009-11-22T07:40:33Z</time>
      </trkpt>
      <trkpt lat="43.33279" lon="5.59417">
        <ele>125.1087646</ele>
        <time>2009-11-22T07:40:41Z</time>
      </trkpt>
      <trkpt lat="43.33298" lon="5.59408">
        <ele>126.0699463</ele>
        <time>2009-11-22T07:40:49Z</time>
      </trkpt>
      <trkpt lat="43.33308" lon="5.59404">
        <ele>129.4346924</ele>
        <time>2009-11-22T07:40:54Z</time>
      </trkpt>
      <trkpt lat="43.33318" lon="5.59397">
        <ele>133.760498</ele>
        <time>2009-11-22T07:41:00Z</time>
      </trkpt>
      <trkpt lat="43.33326" lon="5.59382">
        <ele>142.4124756</ele>
        <time>2009-11-22T07:41:07Z</time>
      </trkpt>
      <trkpt lat="43.33332" lon="5.59367">
        <ele>148.6610107</ele>
        <time>2009-11-22T07:41:13Z</time>
      </trkpt>
      <trkpt lat="43.33336" lon="5.59359">
        <ele>154.4289551</ele>
        <time>2009-11-22T07:41:17Z</time>
      </trkpt>
      <trkpt lat="43.33342" lon="5.59349">
        <ele>160.1968994</ele>
        <time>2009-11-22T07:41:22Z</time>
      </trkpt>
      <trkpt lat="43.33349" lon="5.59334">
        <ele>165.4841309</ele>
        <time>2009-11-22T07:41:28Z</time>
      </trkpt>
      <trkpt lat="43.33355" lon="5.59324">
        <ele>167.4067383</ele>
        <time>2009-11-22T07:41:33Z</time>
      </trkpt>
      <trkpt lat="43.33361" lon="5.59306">
        <ele>166.9260254</ele>
        <time>2009-11-22T07:41:39Z</time>
      </trkpt>
      <trkpt lat="43.33369" lon="5.59288">
        <ele>164.5227051</ele>
        <time>2009-11-22T07:41:44Z</time>
      </trkpt>
      <trkpt lat="43.33376" lon="5.59267">
        <ele>165.003418</ele>
        <time>2009-11-22T07:41:49Z</time>
      </trkpt>
      <trkpt lat="43.33387" lon="5.59246">
        <ele>166.9260254</ele>
        <time>2009-11-22T07:41:54Z</time>
      </trkpt>
      <trkpt lat="43.33401" lon="5.59229">
        <ele>163.5615234</ele>
        <time>2009-11-22T07:41:59Z</time>
      </trkpt>
      <trkpt lat="43.33413" lon="5.59219">
        <ele>161.638916</ele>
        <time>2009-11-22T07:42:03Z</time>
      </trkpt>
      <trkpt lat="43.33425" lon="5.592">
        <ele>161.638916</ele>
        <time>2009-11-22T07:42:09Z</time>
      </trkpt>
      <trkpt lat="43.33436" lon="5.59184">
        <ele>162.1195068</ele>
        <time>2009-11-22T07:42:14Z</time>
      </trkpt>
      <trkpt lat="43.33446" lon="5.59171">
        <ele>162.6000977</ele>
        <time>2009-11-22T07:42:19Z</time>
      </trkpt>
      <trkpt lat="43.33456" lon="5.59154">
        <ele>163.5615234</ele>
        <time>2009-11-22T07:42:24Z</time>
      </trkpt>
      <trkpt lat="43.33468" lon="5.5913">
        <ele>167.4067383</ele>
        <time>2009-11-22T07:42:30Z</time>
      </trkpt>
      <trkpt lat="43.33485" lon="5.591">
        <ele>161.638916</ele>
        <time>2009-11-22T07:42:37Z</time>
      </trkpt>
      <trkpt lat="43.33492" lon="5.59084">
        <ele>163.0808105</ele>
        <time>2009-11-22T07:42:42Z</time>
      </trkpt>
      <trkpt lat="43.33501" lon="5.59061">
        <ele>163.0808105</ele>
        <time>2009-11-22T07:42:47Z</time>
      </trkpt>
      <trkpt lat="43.33505" lon="5.59038">
        <ele>164.0421143</ele>
        <time>2009-11-22T07:42:53Z</time>
      </trkpt>
      <trkpt lat="43.33506" lon="5.59006">
        <ele>167.8873291</ele>
        <time>2009-11-22T07:43:00Z</time>
      </trkpt>
      <trkpt lat="43.33504" lon="5.58983">
        <ele>171.2520752</ele>
        <time>2009-11-22T07:43:05Z</time>
      </trkpt>
      <trkpt lat="43.33496" lon="5.58959">
        <ele>174.6165771</ele>
        <time>2009-11-22T07:43:10Z</time>
      </trkpt>
      <trkpt lat="43.33489" lon="5.58942">
        <ele>177.0200195</ele>
        <time>2009-11-22T07:43:14Z</time>
      </trkpt>
      <trkpt lat="43.33482" lon="5.58919">
        <ele>177.9812012</ele>
        <time>2009-11-22T07:43:19Z</time>
      </trkpt>
      <trkpt lat="43.3348" lon="5.589">
        <ele>179.4232178</ele>
        <time>2009-11-22T07:43:23Z</time>
      </trkpt>
      <trkpt lat="43.33476" lon="5.58878">
        <ele>180.8652344</ele>
        <time>2009-11-22T07:43:28Z</time>
      </trkpt>
      <trkpt lat="43.33478" lon="5.58859">
        <ele>182.3071289</ele>
        <time>2009-11-22T07:43:32Z</time>
      </trkpt>
      <trkpt lat="43.33486" lon="5.5884">
        <ele>183.7490234</ele>
        <time>2009-11-22T07:43:37Z</time>
      </trkpt>
      <trkpt lat="43.33497" lon="5.58828">
        <ele>185.1911621</ele>
        <time>2009-11-22T07:43:41Z</time>
      </trkpt>
      <trkpt lat="43.33512" lon="5.58813">
        <ele>185.6717529</ele>
        <time>2009-11-22T07:43:46Z</time>
      </trkpt>
      <trkpt lat="43.33525" lon="5.58796">
        <ele>185.6717529</ele>
        <time>2009-11-22T07:43:51Z</time>
      </trkpt>
      <trkpt lat="43.33536" lon="5.58774">
        <ele>189.9976807</ele>
        <time>2009-11-22T07:43:57Z</time>
      </trkpt>
      <trkpt lat="43.33543" lon="5.58756">
        <ele>189.5169678</ele>
        <time>2009-11-22T07:44:01Z</time>
      </trkpt>
      <trkpt lat="43.33551" lon="5.58731">
        <ele>186.6331787</ele>
        <time>2009-11-22T07:44:05Z</time>
      </trkpt>
      <trkpt lat="43.33563" lon="5.587">
        <ele>181.3458252</ele>
        <time>2009-11-22T07:44:11Z</time>
      </trkpt>
      <trkpt lat="43.33572" lon="5.58682">
        <ele>177.5006104</ele>
        <time>2009-11-22T07:44:15Z</time>
      </trkpt>
      <trkpt lat="43.33586" lon="5.58665">
        <ele>173.6552734</ele>
        <time>2009-11-22T07:44:19Z</time>
      </trkpt>
      <trkpt lat="43.336" lon="5.58642">
        <ele>173.6552734</ele>
        <time>2009-11-22T07:44:25Z</time>
      </trkpt>
      <trkpt lat="43.3361" lon="5.58623">
        <ele>174.6165771</ele>
        <time>2009-11-22T07:44:30Z</time>
      </trkpt>
      <trkpt lat="43.33614" lon="5.58599">
        <ele>172.6939697</ele>
        <time>2009-11-22T07:44:35Z</time>
      </trkpt>
      <trkpt lat="43.33612" lon="5.58571">
        <ele>171.2520752</ele>
        <time>2009-11-22T07:44:40Z</time>
      </trkpt>
      <trkpt lat="43.33612" lon="5.58553">
        <ele>169.3294678</ele>
        <time>2009-11-22T07:44:43Z</time>
      </trkpt>
      <trkpt lat="43.33637" lon="5.58549">
        <ele>161.1582031</ele>
        <time>2009-11-22T07:44:47Z</time>
      </trkpt>
      <trkpt lat="43.33642" lon="5.58567">
        <ele>160.6774902</ele>
        <time>2009-11-22T07:44:50Z</time>
      </trkpt>
      <trkpt lat="43.33639" lon="5.58579">
        <ele>159.7161865</ele>
        <time>2009-11-22T07:44:52Z</time>
      </trkpt>
      <trkpt lat="43.33634" lon="5.58604">
        <ele>159.2354736</ele>
        <time>2009-11-22T07:44:56Z</time>
      </trkpt>
      <trkpt lat="43.33622" lon="5.58628">
        <ele>156.3515625</ele>
        <time>2009-11-22T07:45:01Z</time>
      </trkpt>
      <trkpt lat="43.33613" lon="5.58642">
        <ele>154.9095459</ele>
        <time>2009-11-22T07:45:04Z</time>
      </trkpt>
      <trkpt lat="43.33609" lon="5.58652">
        <ele>153.9483643</ele>
        <time>2009-11-22T07:45:06Z</time>
      </trkpt>
      <trkpt lat="43.33615" lon="5.58678">
        <ele>154.9095459</ele>
        <time>2009-11-22T07:45:11Z</time>
      </trkpt>
      <trkpt lat="43.33624" lon="5.58683">
        <ele>156.8321533</ele>
        <time>2009-11-22T07:45:13Z</time>
      </trkpt>
      <trkpt lat="43.33637" lon="5.58686">
        <ele>159.2354736</ele>
        <time>2009-11-22T07:45:16Z</time>
      </trkpt>
      <trkpt lat="43.33658" lon="5.58695">
        <ele>159.7161865</ele>
        <time>2009-11-22T07:45:21Z</time>
      </trkpt>
      <trkpt lat="43.33667" lon="5.58707">
        <ele>159.2354736</ele>
        <time>2009-11-22T07:45:24Z</time>
      </trkpt>
      <trkpt lat="43.33676" lon="5.58729">
        <ele>158.7547607</ele>
        <time>2009-11-22T07:45:29Z</time>
      </trkpt>
      <trkpt lat="43.33688" lon="5.58758">
        <ele>159.7161865</ele>
        <time>2009-11-22T07:45:35Z</time>
      </trkpt>
      <trkpt lat="43.33694" lon="5.58781">
        <ele>164.0421143</ele>
        <time>2009-11-22T07:45:40Z</time>
      </trkpt>
      <trkpt lat="43.33706" lon="5.58801">
        <ele>162.6000977</ele>
        <time>2009-11-22T07:45:45Z</time>
      </trkpt>
      <trkpt lat="43.3372" lon="5.58817">
        <ele>161.638916</ele>
        <time>2009-11-22T07:45:50Z</time>
      </trkpt>
      <trkpt lat="43.33728" lon="5.58821">
        <ele>160.6774902</ele>
        <time>2009-11-22T07:45:52Z</time>
      </trkpt>
      <trkpt lat="43.33756" lon="5.58834">
        <ele>156.3515625</ele>
        <time>2009-11-22T07:45:59Z</time>
      </trkpt>
      <trkpt lat="43.33775" lon="5.5885">
        <ele>155.3902588</ele>
        <time>2009-11-22T07:46:05Z</time>
      </trkpt>
      <trkpt lat="43.33787" lon="5.58865">
        <ele>157.3128662</ele>
        <time>2009-11-22T07:46:10Z</time>
      </trkpt>
      <trkpt lat="43.33806" lon="5.58887">
        <ele>160.1968994</ele>
        <time>2009-11-22T07:46:18Z</time>
      </trkpt>
      <trkpt lat="43.33818" lon="5.589">
        <ele>160.1968994</ele>
        <time>2009-11-22T07:46:23Z</time>
      </trkpt>
      <trkpt lat="43.3383" lon="5.58914">
        <ele>160.1968994</ele>
        <time>2009-11-22T07:46:28Z</time>
      </trkpt>
      <trkpt lat="43.33843" lon="5.58932">
        <ele>160.1968994</ele>
        <time>2009-11-22T07:46:34Z</time>
      </trkpt>
      <trkpt lat="43.33849" lon="5.58946">
        <ele>162.1195068</ele>
        <time>2009-11-22T07:46:38Z</time>
      </trkpt>
      <trkpt lat="43.3386" lon="5.58957">
        <ele>164.0421143</ele>
        <time>2009-11-22T07:46:44Z</time>
      </trkpt>
      <trkpt lat="43.33875" lon="5.58966">
        <ele>168.368042</ele>
        <time>2009-11-22T07:46:50Z</time>
      </trkpt>
      <trkpt lat="43.33891" lon="5.58972">
        <ele>171.732666</ele>
        <time>2009-11-22T07:46:56Z</time>
      </trkpt>
      <trkpt lat="43.33906" lon="5.5898">
        <ele>176.5393066</ele>
        <time>2009-11-22T07:47:03Z</time>
      </trkpt>
      <trkpt lat="43.3392" lon="5.58988">
        <ele>179.4232178</ele>
        <time>2009-11-22T07:47:09Z</time>
      </trkpt>
      <trkpt lat="43.3393" lon="5.58995">
        <ele>182.3071289</ele>
        <time>2009-11-22T07:47:13Z</time>
      </trkpt>
      <trkpt lat="43.33943" lon="5.59007">
        <ele>183.7490234</ele>
        <time>2009-11-22T07:47:19Z</time>
      </trkpt>
      <trkpt lat="43.33952" lon="5.59023">
        <ele>184.2298584</ele>
        <time>2009-11-22T07:47:24Z</time>
      </trkpt>
      <trkpt lat="43.33961" lon="5.5904">
        <ele>187.1137695</ele>
        <time>2009-11-22T07:47:30Z</time>
      </trkpt>
      <trkpt lat="43.33975" lon="5.59056">
        <ele>189.9976807</ele>
        <time>2009-11-22T07:47:36Z</time>
      </trkpt>
      <trkpt lat="43.33997" lon="5.59062">
        <ele>188.5557861</ele>
        <time>2009-11-22T07:47:42Z</time>
      </trkpt>
      <trkpt lat="43.34016" lon="5.5907">
        <ele>188.5557861</ele>
        <time>2009-11-22T07:47:48Z</time>
      </trkpt>
      <trkpt lat="43.34034" lon="5.59088">
        <ele>190.4783936</ele>
        <time>2009-11-22T07:47:55Z</time>
      </trkpt>
      <trkpt lat="43.34049" lon="5.59103">
        <ele>192.8817139</ele>
        <time>2009-11-22T07:48:01Z</time>
      </trkpt>
      <trkpt lat="43.34063" lon="5.59117">
        <ele>191.4395752</ele>
        <time>2009-11-22T07:48:06Z</time>
      </trkpt>
      <trkpt lat="43.34082" lon="5.59133">
        <ele>189.5169678</ele>
        <time>2009-11-22T07:48:12Z</time>
      </trkpt>
      <trkpt lat="43.34102" lon="5.59149">
        <ele>188.5557861</ele>
        <time>2009-11-22T07:48:18Z</time>
      </trkpt>
      <trkpt lat="43.34121" lon="5.59167">
        <ele>187.1137695</ele>
        <time>2009-11-22T07:48:24Z</time>
      </trkpt>
      <trkpt lat="43.34139" lon="5.59186">
        <ele>186.6331787</ele>
        <time>2009-11-22T07:48:30Z</time>
      </trkpt>
      <trkpt lat="43.34157" lon="5.59211">
        <ele>186.6331787</ele>
        <time>2009-11-22T07:48:37Z</time>
      </trkpt>
      <trkpt lat="43.34171" lon="5.59227">
        <ele>186.6331787</ele>
        <time>2009-11-22T07:48:42Z</time>
      </trkpt>
      <trkpt lat="43.34189" lon="5.59239">
        <ele>185.6717529</ele>
        <time>2009-11-22T07:48:47Z</time>
      </trkpt>
      <trkpt lat="43.34207" lon="5.59247">
        <ele>185.6717529</ele>
        <time>2009-11-22T07:48:52Z</time>
      </trkpt>
      <trkpt lat="43.34226" lon="5.59254">
        <ele>184.7105713</ele>
        <time>2009-11-22T07:48:57Z</time>
      </trkpt>
      <trkpt lat="43.34246" lon="5.59258">
        <ele>184.2298584</ele>
        <time>2009-11-22T07:49:02Z</time>
      </trkpt>
      <trkpt lat="43.34264" lon="5.59268">
        <ele>185.1911621</ele>
        <time>2009-11-22T07:49:07Z</time>
      </trkpt>
      <trkpt lat="43.34284" lon="5.59275">
        <ele>184.2298584</ele>
        <time>2009-11-22T07:49:12Z</time>
      </trkpt>
      <trkpt lat="43.34309" lon="5.59294">
        <ele>180.8652344</ele>
        <time>2009-11-22T07:49:19Z</time>
      </trkpt>
      <trkpt lat="43.34313" lon="5.59296">
        <ele>180.3845215</ele>
        <time>2009-11-22T07:49:20Z</time>
      </trkpt>
      <trkpt lat="43.34336" lon="5.5932">
        <ele>177.9812012</ele>
        <time>2009-11-22T07:49:27Z</time>
      </trkpt>
      <trkpt lat="43.34356" lon="5.59346">
        <ele>176.0585938</ele>
        <time>2009-11-22T07:49:34Z</time>
      </trkpt>
      <trkpt lat="43.34367" lon="5.59363">
        <ele>176.5393066</ele>
        <time>2009-11-22T07:49:39Z</time>
      </trkpt>
      <trkpt lat="43.3438" lon="5.59382">
        <ele>176.5393066</ele>
        <time>2009-11-22T07:49:45Z</time>
      </trkpt>
      <trkpt lat="43.34391" lon="5.59399">
        <ele>177.5006104</ele>
        <time>2009-11-22T07:49:50Z</time>
      </trkpt>
      <trkpt lat="43.34404" lon="5.59414">
        <ele>181.3458252</ele>
        <time>2009-11-22T07:49:56Z</time>
      </trkpt>
      <trkpt lat="43.34411" lon="5.59425">
        <ele>182.3071289</ele>
        <time>2009-11-22T07:50:00Z</time>
      </trkpt>
      <trkpt lat="43.34422" lon="5.59439">
        <ele>186.1524658</ele>
        <time>2009-11-22T07:50:06Z</time>
      </trkpt>
      <trkpt lat="43.34429" lon="5.5945">
        <ele>187.1137695</ele>
        <time>2009-11-22T07:50:10Z</time>
      </trkpt>
      <trkpt lat="43.3444" lon="5.59468">
        <ele>189.036377</ele>
        <time>2009-11-22T07:50:17Z</time>
      </trkpt>
      <trkpt lat="43.3445" lon="5.5948">
        <ele>192.401123</ele>
        <time>2009-11-22T07:50:23Z</time>
      </trkpt>
      <trkpt lat="43.34457" lon="5.5949">
        <ele>192.8817139</ele>
        <time>2009-11-22T07:50:27Z</time>
      </trkpt>
      <trkpt lat="43.34464" lon="5.59506">
        <ele>191.9202881</ele>
        <time>2009-11-22T07:50:32Z</time>
      </trkpt>
      <trkpt lat="43.3447" lon="5.59523">
        <ele>190.4783936</ele>
        <time>2009-11-22T07:50:37Z</time>
      </trkpt>
      <trkpt lat="43.34474" lon="5.5953">
        <ele>188.5557861</ele>
        <time>2009-11-22T07:50:40Z</time>
      </trkpt>
      <trkpt lat="43.34481" lon="5.59556">
        <ele>186.6331787</ele>
        <time>2009-11-22T07:50:46Z</time>
      </trkpt>
      <trkpt lat="43.34484" lon="5.59578">
        <ele>184.7105713</ele>
        <time>2009-11-22T07:50:51Z</time>
      </trkpt>
      <trkpt lat="43.34489" lon="5.59595">
        <ele>183.2684326</ele>
        <time>2009-11-22T07:50:55Z</time>
      </trkpt>
      <trkpt lat="43.34493" lon="5.5962">
        <ele>179.9038086</ele>
        <time>2009-11-22T07:51:00Z</time>
      </trkpt>
      <trkpt lat="43.34495" lon="5.59644">
        <ele>177.0200195</ele>
        <time>2009-11-22T07:51:04Z</time>
      </trkpt>
      <trkpt lat="43.34502" lon="5.59664">
        <ele>173.1746826</ele>
        <time>2009-11-22T07:51:08Z</time>
      </trkpt>
      <trkpt lat="43.34514" lon="5.59686">
        <ele>167.8873291</ele>
        <time>2009-11-22T07:51:13Z</time>
      </trkpt>
      <trkpt lat="43.34521" lon="5.59712">
        <ele>164.0421143</ele>
        <time>2009-11-22T07:51:19Z</time>
      </trkpt>
      <trkpt lat="43.3452" lon="5.59728">
        <ele>164.0421143</ele>
        <time>2009-11-22T07:51:22Z</time>
      </trkpt>
      <trkpt lat="43.34519" lon="5.59749">
        <ele>161.638916</ele>
        <time>2009-11-22T07:51:27Z</time>
      </trkpt>
      <trkpt lat="43.34533" lon="5.59766">
        <ele>162.6000977</ele>
        <time>2009-11-22T07:51:32Z</time>
      </trkpt>
      <trkpt lat="43.3455" lon="5.59771">
        <ele>162.1195068</ele>
        <time>2009-11-22T07:51:36Z</time>
      </trkpt>
      <trkpt lat="43.3456" lon="5.59771">
        <ele>159.7161865</ele>
        <time>2009-11-22T07:51:38Z</time>
      </trkpt>
      <trkpt lat="43.34582" lon="5.59772">
        <ele>155.3902588</ele>
        <time>2009-11-22T07:51:43Z</time>
      </trkpt>
      <trkpt lat="43.34599" lon="5.59773">
        <ele>151.064209</ele>
        <time>2009-11-22T07:51:47Z</time>
      </trkpt>
      <trkpt lat="43.34615" lon="5.59777">
        <ele>149.1416016</ele>
        <time>2009-11-22T07:51:51Z</time>
      </trkpt>
      <trkpt lat="43.34632" lon="5.59784">
        <ele>149.6223145</ele>
        <time>2009-11-22T07:51:56Z</time>
      </trkpt>
      <trkpt lat="43.34648" lon="5.59793">
        <ele>152.0257568</ele>
        <time>2009-11-22T07:52:01Z</time>
      </trkpt>
      <trkpt lat="43.34659" lon="5.59806">
        <ele>151.5449219</ele>
        <time>2009-11-22T07:52:06Z</time>
      </trkpt>
      <trkpt lat="43.34678" lon="5.59814">
        <ele>152.9869385</ele>
        <time>2009-11-22T07:52:12Z</time>
      </trkpt>
      <trkpt lat="43.34696" lon="5.59822">
        <ele>154.9095459</ele>
        <time>2009-11-22T07:52:17Z</time>
      </trkpt>
      <trkpt lat="43.34711" lon="5.59831">
        <ele>155.8709717</ele>
        <time>2009-11-22T07:52:21Z</time>
      </trkpt>
      <trkpt lat="43.3473" lon="5.59839">
        <ele>158.7547607</ele>
        <time>2009-11-22T07:52:26Z</time>
      </trkpt>
      <trkpt lat="43.3475" lon="5.59852">
        <ele>160.1968994</ele>
        <time>2009-11-22T07:52:32Z</time>
      </trkpt>
      <trkpt lat="43.34771" lon="5.59864">
        <ele>159.7161865</ele>
        <time>2009-11-22T07:52:38Z</time>
      </trkpt>
      <trkpt lat="43.34788" lon="5.59873">
        <ele>160.6774902</ele>
        <time>2009-11-22T07:52:43Z</time>
      </trkpt>
      <trkpt lat="43.34806" lon="5.59888">
        <ele>161.1582031</ele>
        <time>2009-11-22T07:52:49Z</time>
      </trkpt>
      <trkpt lat="43.34823" lon="5.59904">
        <ele>162.1195068</ele>
        <time>2009-11-22T07:52:55Z</time>
      </trkpt>
      <trkpt lat="43.34837" lon="5.59906">
        <ele>162.6000977</ele>
        <time>2009-11-22T07:53:00Z</time>
      </trkpt>
      <trkpt lat="43.34838" lon="5.59907">
        <ele>163.0808105</ele>
        <time>2009-11-22T07:53:06Z</time>
      </trkpt>
      <trkpt lat="43.34837" lon="5.59907">
        <ele>162.6000977</ele>
        <time>2009-11-22T07:53:11Z</time>
      </trkpt>
      <trkpt lat="43.34837" lon="5.59906">
        <ele>160.6774902</ele>
        <time>2009-11-22T07:53:19Z</time>
      </trkpt>
      <trkpt lat="43.34836" lon="5.59906">
        <ele>160.6774902</ele>
        <time>2009-11-22T07:53:26Z</time>
      </trkpt>
      <trkpt lat="43.34833" lon="5.59912">
        <ele>160.6774902</ele>
        <time>2009-11-22T07:53:30Z</time>
      </trkpt>
      <trkpt lat="43.34846" lon="5.59935">
        <ele>160.1968994</ele>
        <time>2009-11-22T07:53:37Z</time>
      </trkpt>
      <trkpt lat="43.34876" lon="5.59949">
        <ele>159.2354736</ele>
        <time>2009-11-22T07:53:46Z</time>
      </trkpt>
      <trkpt lat="43.34895" lon="5.59958">
        <ele>158.2741699</ele>
        <time>2009-11-22T07:53:52Z</time>
      </trkpt>
      <trkpt lat="43.34908" lon="5.59944">
        <ele>157.7935791</ele>
        <time>2009-11-22T07:53:57Z</time>
      </trkpt>
      <trkpt lat="43.34911" lon="5.59942">
        <ele>158.2741699</ele>
        <time>2009-11-22T07:53:58Z</time>
      </trkpt>
      <trkpt lat="43.34919" lon="5.59942">
        <ele>158.2741699</ele>
        <time>2009-11-22T07:54:01Z</time>
      </trkpt>
      <trkpt lat="43.34929" lon="5.59945">
        <ele>157.3128662</ele>
        <time>2009-11-22T07:54:04Z</time>
      </trkpt>
      <trkpt lat="43.34947" lon="5.59959">
        <ele>156.8321533</ele>
        <time>2009-11-22T07:54:09Z</time>
      </trkpt>
      <trkpt lat="43.34954" lon="5.5997">
        <ele>156.8321533</ele>
        <time>2009-11-22T07:54:11Z</time>
      </trkpt>
      <trkpt lat="43.34956" lon="5.60011">
        <ele>156.3515625</ele>
        <time>2009-11-22T07:54:16Z</time>
      </trkpt>
      <trkpt lat="43.34954" lon="5.6002">
        <ele>156.3515625</ele>
        <time>2009-11-22T07:54:17Z</time>
      </trkpt>
      <trkpt lat="43.3494" lon="5.60089">
        <ele>155.8709717</ele>
        <time>2009-11-22T07:54:24Z</time>
      </trkpt>
      <trkpt lat="43.34931" lon="5.60133">
        <ele>154.4289551</ele>
        <time>2009-11-22T07:54:28Z</time>
      </trkpt>
      <trkpt lat="43.34917" lon="5.60204">
        <ele>152.9869385</ele>
        <time>2009-11-22T07:54:34Z</time>
      </trkpt>
      <trkpt lat="43.34901" lon="5.60275">
        <ele>155.3902588</ele>
        <time>2009-11-22T07:54:41Z</time>
      </trkpt>
      <trkpt lat="43.34885" lon="5.60347">
        <ele>156.3515625</ele>
        <time>2009-11-22T07:54:49Z</time>
      </trkpt>
      <trkpt lat="43.34895" lon="5.60367">
        <ele>155.8709717</ele>
        <time>2009-11-22T07:54:53Z</time>
      </trkpt>
      <trkpt lat="43.34904" lon="5.60368">
        <ele>155.8709717</ele>
        <time>2009-11-22T07:54:54Z</time>
      </trkpt>
      <trkpt lat="43.34947" lon="5.60378">
        <ele>156.3515625</ele>
        <time>2009-11-22T07:55:00Z</time>
      </trkpt>
      <trkpt lat="43.34991" lon="5.60417">
        <ele>159.2354736</ele>
        <time>2009-11-22T07:55:07Z</time>
      </trkpt>
      <trkpt lat="43.35042" lon="5.60422">
        <ele>159.2354736</ele>
        <time>2009-11-22T07:55:13Z</time>
      </trkpt>
      <trkpt lat="43.35068" lon="5.60419">
        <ele>162.6000977</ele>
        <time>2009-11-22T07:55:16Z</time>
      </trkpt>
      <trkpt lat="43.35106" lon="5.60425">
        <ele>164.5227051</ele>
        <time>2009-11-22T07:55:21Z</time>
      </trkpt>
      <trkpt lat="43.35144" lon="5.60435">
        <ele>164.5227051</ele>
        <time>2009-11-22T07:55:26Z</time>
      </trkpt>
      <trkpt lat="43.35174" lon="5.6046">
        <ele>164.5227051</ele>
        <time>2009-11-22T07:55:31Z</time>
      </trkpt>
      <trkpt lat="43.35185" lon="5.60484">
        <ele>164.0421143</ele>
        <time>2009-11-22T07:55:34Z</time>
      </trkpt>
      <trkpt lat="43.3519" lon="5.60501">
        <ele>163.0808105</ele>
        <time>2009-11-22T07:55:36Z</time>
      </trkpt>
      <trkpt lat="43.35207" lon="5.60524">
        <ele>164.0421143</ele>
        <time>2009-11-22T07:55:40Z</time>
      </trkpt>
      <trkpt lat="43.35225" lon="5.6053">
        <ele>164.5227051</ele>
        <time>2009-11-22T07:55:43Z</time>
      </trkpt>
      <trkpt lat="43.35277" lon="5.60554">
        <ele>163.5615234</ele>
        <time>2009-11-22T07:55:52Z</time>
      </trkpt>
      <trkpt lat="43.35315" lon="5.60572">
        <ele>163.0808105</ele>
        <time>2009-11-22T07:55:59Z</time>
      </trkpt>
      <trkpt lat="43.35348" lon="5.60593">
        <ele>162.6000977</ele>
        <time>2009-11-22T07:56:06Z</time>
      </trkpt>
      <trkpt lat="43.35381" lon="5.60622">
        <ele>163.0808105</ele>
        <time>2009-11-22T07:56:13Z</time>
      </trkpt>
      <trkpt lat="43.35395" lon="5.60638">
        <ele>163.0808105</ele>
        <time>2009-11-22T07:56:16Z</time>
      </trkpt>
      <trkpt lat="43.35412" lon="5.60677">
        <ele>162.6000977</ele>
        <time>2009-11-22T07:56:21Z</time>
      </trkpt>
      <trkpt lat="43.35425" lon="5.60711">
        <ele>162.6000977</ele>
        <time>2009-11-22T07:56:25Z</time>
      </trkpt>
      <trkpt lat="43.35451" lon="5.60767">
        <ele>162.1195068</ele>
        <time>2009-11-22T07:56:32Z</time>
      </trkpt>
      <trkpt lat="43.3548" lon="5.60815">
        <ele>163.5615234</ele>
        <time>2009-11-22T07:56:39Z</time>
      </trkpt>
      <trkpt lat="43.35513" lon="5.60874">
        <ele>165.003418</ele>
        <time>2009-11-22T07:56:48Z</time>
      </trkpt>
      <trkpt lat="43.35544" lon="5.60925">
        <ele>165.9647217</ele>
        <time>2009-11-22T07:56:56Z</time>
      </trkpt>
      <trkpt lat="43.35567" lon="5.60956">
        <ele>165.4841309</ele>
        <time>2009-11-22T07:57:01Z</time>
      </trkpt>
      <trkpt lat="43.35598" lon="5.60974">
        <ele>165.003418</ele>
        <time>2009-11-22T07:57:06Z</time>
      </trkpt>
      <trkpt lat="43.35605" lon="5.60975">
        <ele>165.003418</ele>
        <time>2009-11-22T07:57:07Z</time>
      </trkpt>
      <trkpt lat="43.35669" lon="5.60979">
        <ele>165.4841309</ele>
        <time>2009-11-22T07:57:16Z</time>
      </trkpt>
      <trkpt lat="43.35716" lon="5.60982">
        <ele>168.368042</ele>
        <time>2009-11-22T07:57:23Z</time>
      </trkpt>
      <trkpt lat="43.35731" lon="5.60984">
        <ele>169.8100586</ele>
        <time>2009-11-22T07:57:25Z</time>
      </trkpt>
      <trkpt lat="43.35769" lon="5.61">
        <ele>169.3294678</ele>
        <time>2009-11-22T07:57:31Z</time>
      </trkpt>
      <trkpt lat="43.35798" lon="5.61012">
        <ele>169.8100586</ele>
        <time>2009-11-22T07:57:36Z</time>
      </trkpt>
      <trkpt lat="43.35828" lon="5.61001">
        <ele>170.2906494</ele>
        <time>2009-11-22T07:57:41Z</time>
      </trkpt>
      <trkpt lat="43.35841" lon="5.60981">
        <ele>170.2906494</ele>
        <time>2009-11-22T07:57:44Z</time>
      </trkpt>
      <trkpt lat="43.35872" lon="5.60931">
        <ele>169.3294678</ele>
        <time>2009-11-22T07:57:51Z</time>
      </trkpt>
      <trkpt lat="43.3591" lon="5.60888">
        <ele>170.2906494</ele>
        <time>2009-11-22T07:57:58Z</time>
      </trkpt>
      <trkpt lat="43.35951" lon="5.6087">
        <ele>169.8100586</ele>
        <time>2009-11-22T07:58:04Z</time>
      </trkpt>
      <trkpt lat="43.3598" lon="5.60866">
        <ele>170.2906494</ele>
        <time>2009-11-22T07:58:08Z</time>
      </trkpt>
      <trkpt lat="43.36009" lon="5.60876">
        <ele>169.8100586</ele>
        <time>2009-11-22T07:58:12Z</time>
      </trkpt>
      <trkpt lat="43.36057" lon="5.60916">
        <ele>168.8487549</ele>
        <time>2009-11-22T07:58:19Z</time>
      </trkpt>
      <trkpt lat="43.36063" lon="5.60923">
        <ele>168.8487549</ele>
        <time>2009-11-22T07:58:20Z</time>
      </trkpt>
      <trkpt lat="43.361" lon="5.60973">
        <ele>168.368042</ele>
        <time>2009-11-22T07:58:26Z</time>
      </trkpt>
      <trkpt lat="43.36128" lon="5.61031">
        <ele>168.368042</ele>
        <time>2009-11-22T07:58:32Z</time>
      </trkpt>
      <trkpt lat="43.36147" lon="5.61095">
        <ele>168.8487549</ele>
        <time>2009-11-22T07:58:38Z</time>
      </trkpt>
      <trkpt lat="43.36159" lon="5.61138">
        <ele>168.8487549</ele>
        <time>2009-11-22T07:58:42Z</time>
      </trkpt>
      <trkpt lat="43.36181" lon="5.61168">
        <ele>169.3294678</ele>
        <time>2009-11-22T07:58:46Z</time>
      </trkpt>
      <trkpt lat="43.36195" lon="5.61175">
        <ele>169.8100586</ele>
        <time>2009-11-22T07:58:48Z</time>
      </trkpt>
      <trkpt lat="43.36252" lon="5.6119">
        <ele>170.2906494</ele>
        <time>2009-11-22T07:58:56Z</time>
      </trkpt>
      <trkpt lat="43.36308" lon="5.61204">
        <ele>171.2520752</ele>
        <time>2009-11-22T07:59:05Z</time>
      </trkpt>
      <trkpt lat="43.36342" lon="5.61215">
        <ele>172.2132568</ele>
        <time>2009-11-22T07:59:11Z</time>
      </trkpt>
      <trkpt lat="43.36365" lon="5.61212">
        <ele>173.6552734</ele>
        <time>2009-11-22T07:59:15Z</time>
      </trkpt>
      <trkpt lat="43.3637" lon="5.61207">
        <ele>173.6552734</ele>
        <time>2009-11-22T07:59:16Z</time>
      </trkpt>
      <trkpt lat="43.36394" lon="5.61187">
        <ele>174.1358643</ele>
        <time>2009-11-22T07:59:21Z</time>
      </trkpt>
      <trkpt lat="43.36431" lon="5.61174">
        <ele>174.6165771</ele>
        <time>2009-11-22T07:59:29Z</time>
      </trkpt>
      <trkpt lat="43.36447" lon="5.61168">
        <ele>175.09729</ele>
        <time>2009-11-22T07:59:32Z</time>
      </trkpt>
      <trkpt lat="43.3647" lon="5.61155">
        <ele>174.1358643</ele>
        <time>2009-11-22T07:59:37Z</time>
      </trkpt>
      <trkpt lat="43.3648" lon="5.61135">
        <ele>173.6552734</ele>
        <time>2009-11-22T07:59:41Z</time>
      </trkpt>
      <trkpt lat="43.3648" lon="5.6113">
        <ele>173.6552734</ele>
        <time>2009-11-22T07:59:42Z</time>
      </trkpt>
      <trkpt lat="43.36483" lon="5.61102">
        <ele>176.5393066</ele>
        <time>2009-11-22T07:59:50Z</time>
      </trkpt>
      <trkpt lat="43.36487" lon="5.61092">
        <ele>179.4232178</ele>
        <time>2009-11-22T07:59:55Z</time>
      </trkpt>
      <trkpt lat="43.36494" lon="5.61084">
        <ele>180.8652344</ele>
        <time>2009-11-22T08:00:00Z</time>
      </trkpt>
      <trkpt lat="43.36505" lon="5.61072">
        <ele>183.7490234</ele>
        <time>2009-11-22T08:00:06Z</time>
      </trkpt>
      <trkpt lat="43.36513" lon="5.61057">
        <ele>185.1911621</ele>
        <time>2009-11-22T08:00:12Z</time>
      </trkpt>
      <trkpt lat="43.36519" lon="5.61044">
        <ele>186.6331787</ele>
        <time>2009-11-22T08:00:17Z</time>
      </trkpt>
      <trkpt lat="43.36523" lon="5.61027">
        <ele>187.1137695</ele>
        <time>2009-11-22T08:00:23Z</time>
      </trkpt>
      <trkpt lat="43.36525" lon="5.6101">
        <ele>189.036377</ele>
        <time>2009-11-22T08:00:29Z</time>
      </trkpt>
      <trkpt lat="43.36522" lon="5.60991">
        <ele>190.4783936</ele>
        <time>2009-11-22T08:00:35Z</time>
      </trkpt>
      <trkpt lat="43.36517" lon="5.6097">
        <ele>195.2849121</ele>
        <time>2009-11-22T08:00:43Z</time>
      </trkpt>
      <trkpt lat="43.3651" lon="5.60952">
        <ele>200.0916748</ele>
        <time>2009-11-22T08:00:51Z</time>
      </trkpt>
      <trkpt lat="43.36504" lon="5.60934">
        <ele>202.9754639</ele>
        <time>2009-11-22T08:00:59Z</time>
      </trkpt>
      <trkpt lat="43.36504" lon="5.60916">
        <ele>205.8594971</ele>
        <time>2009-11-22T08:01:07Z</time>
      </trkpt>
      <trkpt lat="43.36509" lon="5.60912">
        <ele>208.7434082</ele>
        <time>2009-11-22T08:01:11Z</time>
      </trkpt>
      <trkpt lat="43.36511" lon="5.60909">
        <ele>209.704834</ele>
        <time>2009-11-22T08:01:16Z</time>
      </trkpt>
      <trkpt lat="43.36518" lon="5.60907">
        <ele>208.7434082</ele>
        <time>2009-11-22T08:01:20Z</time>
      </trkpt>
      <trkpt lat="43.36533" lon="5.60911">
        <ele>210.6660156</ele>
        <time>2009-11-22T08:01:27Z</time>
      </trkpt>
      <trkpt lat="43.36542" lon="5.60916">
        <ele>210.6660156</ele>
        <time>2009-11-22T08:01:32Z</time>
      </trkpt>
      <trkpt lat="43.36552" lon="5.60915">
        <ele>209.704834</ele>
        <time>2009-11-22T08:01:38Z</time>
      </trkpt>
      <trkpt lat="43.36562" lon="5.60908">
        <ele>211.1467285</ele>
        <time>2009-11-22T08:01:44Z</time>
      </trkpt>
      <trkpt lat="43.36573" lon="5.60897">
        <ele>211.6274414</ele>
        <time>2009-11-22T08:01:51Z</time>
      </trkpt>
      <trkpt lat="43.36579" lon="5.60887">
        <ele>214.0306396</ele>
        <time>2009-11-22T08:01:57Z</time>
      </trkpt>
      <trkpt lat="43.36585" lon="5.60872">
        <ele>215.4726563</ele>
        <time>2009-11-22T08:02:04Z</time>
      </trkpt>
      <trkpt lat="43.36581" lon="5.60855">
        <ele>218.3565674</ele>
        <time>2009-11-22T08:02:11Z</time>
      </trkpt>
      <trkpt lat="43.36567" lon="5.60846">
        <ele>221.7211914</ele>
        <time>2009-11-22T08:02:20Z</time>
      </trkpt>
      <trkpt lat="43.36563" lon="5.60846">
        <ele>222.6824951</ele>
        <time>2009-11-22T08:02:22Z</time>
      </trkpt>
      <trkpt lat="43.36552" lon="5.6085">
        <ele>223.6437988</ele>
        <time>2009-11-22T08:02:28Z</time>
      </trkpt>
      <trkpt lat="43.36547" lon="5.60848">
        <ele>223.163208</ele>
        <time>2009-11-22T08:02:31Z</time>
      </trkpt>
      <trkpt lat="43.36528" lon="5.60838">
        <ele>226.527832</ele>
        <time>2009-11-22T08:02:39Z</time>
      </trkpt>
      <trkpt lat="43.36518" lon="5.60835">
        <ele>227.0085449</ele>
        <time>2009-11-22T08:02:44Z</time>
      </trkpt>
      <trkpt lat="43.36502" lon="5.6084">
        <ele>228.9311523</ele>
        <time>2009-11-22T08:02:51Z</time>
      </trkpt>
      <trkpt lat="43.36476" lon="5.60844">
        <ele>233.2570801</ele>
        <time>2009-11-22T08:03:00Z</time>
      </trkpt>
      <trkpt lat="43.36452" lon="5.6085">
        <ele>236.1409912</ele>
        <time>2009-11-22T08:03:09Z</time>
      </trkpt>
      <trkpt lat="43.36447" lon="5.60851">
        <ele>236.6217041</ele>
        <time>2009-11-22T08:03:11Z</time>
      </trkpt>
      <trkpt lat="43.36434" lon="5.60858">
        <ele>238.5443115</ele>
        <time>2009-11-22T08:03:17Z</time>
      </trkpt>
      <trkpt lat="43.3643" lon="5.6085">
        <ele>239.5054932</ele>
        <time>2009-11-22T08:03:21Z</time>
      </trkpt>
      <trkpt lat="43.36438" lon="5.60841">
        <ele>240.467041</ele>
        <time>2009-11-22T08:03:25Z</time>
      </trkpt>
      <trkpt lat="43.36459" lon="5.60821">
        <ele>242.3896484</ele>
        <time>2009-11-22T08:03:35Z</time>
      </trkpt>
      <trkpt lat="43.36476" lon="5.60816">
        <ele>242.8702393</ele>
        <time>2009-11-22T08:03:41Z</time>
      </trkpt>
      <trkpt lat="43.36488" lon="5.60803">
        <ele>244.7928467</ele>
        <time>2009-11-22T08:03:46Z</time>
      </trkpt>
      <trkpt lat="43.36488" lon="5.60783">
        <ele>245.7541504</ele>
        <time>2009-11-22T08:03:51Z</time>
      </trkpt>
      <trkpt lat="43.36492" lon="5.60764">
        <ele>247.6767578</ele>
        <time>2009-11-22T08:03:56Z</time>
      </trkpt>
      <trkpt lat="43.36507" lon="5.60748">
        <ele>249.5994873</ele>
        <time>2009-11-22T08:04:03Z</time>
      </trkpt>
      <trkpt lat="43.3652" lon="5.60731">
        <ele>252.0028076</ele>
        <time>2009-11-22T08:04:10Z</time>
      </trkpt>
      <trkpt lat="43.36523" lon="5.60713">
        <ele>253.925415</ele>
        <time>2009-11-22T08:04:16Z</time>
      </trkpt>
      <trkpt lat="43.36519" lon="5.60691">
        <ele>254.8865967</ele>
        <time>2009-11-22T08:04:23Z</time>
      </trkpt>
      <trkpt lat="43.36521" lon="5.6067">
        <ele>256.8093262</ele>
        <time>2009-11-22T08:04:30Z</time>
      </trkpt>
      <trkpt lat="43.36528" lon="5.60658">
        <ele>258.2513428</ele>
        <time>2009-11-22T08:04:35Z</time>
      </trkpt>
      <trkpt lat="43.36544" lon="5.6064">
        <ele>260.654541</ele>
        <time>2009-11-22T08:04:44Z</time>
      </trkpt>
      <trkpt lat="43.36558" lon="5.60623">
        <ele>262.5771484</ele>
        <time>2009-11-22T08:04:52Z</time>
      </trkpt>
      <trkpt lat="43.36563" lon="5.60604">
        <ele>264.0192871</ele>
        <time>2009-11-22T08:04:58Z</time>
      </trkpt>
      <trkpt lat="43.36559" lon="5.60589">
        <ele>264.9805908</ele>
        <time>2009-11-22T08:05:03Z</time>
      </trkpt>
      <trkpt lat="43.36548" lon="5.6057">
        <ele>267.3839111</ele>
        <time>2009-11-22T08:05:11Z</time>
      </trkpt>
      <trkpt lat="43.36539" lon="5.60555">
        <ele>268.8258057</ele>
        <time>2009-11-22T08:05:17Z</time>
      </trkpt>
      <trkpt lat="43.3653" lon="5.60533">
        <ele>272.1904297</ele>
        <time>2009-11-22T08:05:24Z</time>
      </trkpt>
      <trkpt lat="43.36531" lon="5.60513">
        <ele>274.1130371</ele>
        <time>2009-11-22T08:05:29Z</time>
      </trkpt>
      <trkpt lat="43.3654" lon="5.60493">
        <ele>275.0744629</ele>
        <time>2009-11-22T08:05:35Z</time>
      </trkpt>
      <trkpt lat="43.36551" lon="5.60488">
        <ele>275.0744629</ele>
        <time>2009-11-22T08:05:39Z</time>
      </trkpt>
      <trkpt lat="43.36569" lon="5.60483">
        <ele>274.1130371</ele>
        <time>2009-11-22T08:05:44Z</time>
      </trkpt>
      <trkpt lat="43.36592" lon="5.60471">
        <ele>276.9970703</ele>
        <time>2009-11-22T08:05:51Z</time>
      </trkpt>
      <trkpt lat="43.36595" lon="5.60454">
        <ele>277.958252</ele>
        <time>2009-11-22T08:05:55Z</time>
      </trkpt>
      <trkpt lat="43.36589" lon="5.60415">
        <ele>281.8035889</ele>
        <time>2009-11-22T08:06:03Z</time>
      </trkpt>
      <trkpt lat="43.36591" lon="5.60392">
        <ele>282.7650146</ele>
        <time>2009-11-22T08:06:08Z</time>
      </trkpt>
      <trkpt lat="43.36593" lon="5.60388">
        <ele>282.2843018</ele>
        <time>2009-11-22T08:06:09Z</time>
      </trkpt>
      <trkpt lat="43.36611" lon="5.60376">
        <ele>282.7650146</ele>
        <time>2009-11-22T08:06:14Z</time>
      </trkpt>
      <trkpt lat="43.36616" lon="5.60368">
        <ele>283.2456055</ele>
        <time>2009-11-22T08:06:16Z</time>
      </trkpt>
      <trkpt lat="43.3663" lon="5.60343">
        <ele>285.1682129</ele>
        <time>2009-11-22T08:06:23Z</time>
      </trkpt>
      <trkpt lat="43.36635" lon="5.60338">
        <ele>285.1682129</ele>
        <time>2009-11-22T08:06:25Z</time>
      </trkpt>
      <trkpt lat="43.36657" lon="5.60342">
        <ele>288.532959</ele>
        <time>2009-11-22T08:06:31Z</time>
      </trkpt>
      <trkpt lat="43.36674" lon="5.6034">
        <ele>289.4941406</ele>
        <time>2009-11-22T08:06:36Z</time>
      </trkpt>
      <trkpt lat="43.36689" lon="5.60334">
        <ele>289.9748535</ele>
        <time>2009-11-22T08:06:42Z</time>
      </trkpt>
      <trkpt lat="43.36707" lon="5.60322">
        <ele>291.416748</ele>
        <time>2009-11-22T08:06:50Z</time>
      </trkpt>
      <trkpt lat="43.36726" lon="5.60304">
        <ele>293.8200684</ele>
        <time>2009-11-22T08:06:59Z</time>
      </trkpt>
      <trkpt lat="43.36733" lon="5.60284">
        <ele>296.2235107</ele>
        <time>2009-11-22T08:07:06Z</time>
      </trkpt>
      <trkpt lat="43.36728" lon="5.60263">
        <ele>296.2235107</ele>
        <time>2009-11-22T08:07:11Z</time>
      </trkpt>
      <trkpt lat="43.36714" lon="5.60236">
        <ele>296.2235107</ele>
        <time>2009-11-22T08:07:16Z</time>
      </trkpt>
      <trkpt lat="43.36699" lon="5.60182">
        <ele>295.7426758</ele>
        <time>2009-11-22T08:07:24Z</time>
      </trkpt>
      <trkpt lat="43.36687" lon="5.60134">
        <ele>294.7813721</ele>
        <time>2009-11-22T08:07:30Z</time>
      </trkpt>
      <trkpt lat="43.36677" lon="5.60108">
        <ele>294.3007813</ele>
        <time>2009-11-22T08:07:33Z</time>
      </trkpt>
      <trkpt lat="43.36671" lon="5.6007">
        <ele>294.7813721</ele>
        <time>2009-11-22T08:07:37Z</time>
      </trkpt>
      <trkpt lat="43.36671" lon="5.60041">
        <ele>295.2619629</ele>
        <time>2009-11-22T08:07:40Z</time>
      </trkpt>
      <trkpt lat="43.36671" lon="5.59968">
        <ele>294.3007813</ele>
        <time>2009-11-22T08:07:47Z</time>
      </trkpt>
      <trkpt lat="43.36661" lon="5.59892">
        <ele>293.8200684</ele>
        <time>2009-11-22T08:07:54Z</time>
      </trkpt>
      <trkpt lat="43.36659" lon="5.59881">
        <ele>293.3393555</ele>
        <time>2009-11-22T08:07:55Z</time>
      </trkpt>
      <trkpt lat="43.36643" lon="5.59847">
        <ele>292.3781738</ele>
        <time>2009-11-22T08:07:59Z</time>
      </trkpt>
      <trkpt lat="43.36624" lon="5.59835">
        <ele>291.8974609</ele>
        <time>2009-11-22T08:08:02Z</time>
      </trkpt>
      <trkpt lat="43.36617" lon="5.59834">
        <ele>291.416748</ele>
        <time>2009-11-22T08:08:03Z</time>
      </trkpt>
      <trkpt lat="43.36589" lon="5.59808">
        <ele>290.4555664</ele>
        <time>2009-11-22T08:08:08Z</time>
      </trkpt>
      <trkpt lat="43.36554" lon="5.59776">
        <ele>289.9748535</ele>
        <time>2009-11-22T08:08:14Z</time>
      </trkpt>
      <trkpt lat="43.36519" lon="5.59762">
        <ele>290.9361572</ele>
        <time>2009-11-22T08:08:19Z</time>
      </trkpt>
      <trkpt lat="43.36487" lon="5.59728">
        <ele>291.416748</ele>
        <time>2009-11-22T08:08:25Z</time>
      </trkpt>
      <trkpt lat="43.36482" lon="5.59721">
        <ele>291.8974609</ele>
        <time>2009-11-22T08:08:26Z</time>
      </trkpt>
      <trkpt lat="43.36443" lon="5.59687">
        <ele>293.8200684</ele>
        <time>2009-11-22T08:08:34Z</time>
      </trkpt>
      <trkpt lat="43.36434" lon="5.5968">
        <ele>294.3007813</ele>
        <time>2009-11-22T08:08:36Z</time>
      </trkpt>
      <trkpt lat="43.36392" lon="5.59657">
        <ele>294.7813721</ele>
        <time>2009-11-22T08:08:44Z</time>
      </trkpt>
      <trkpt lat="43.36349" lon="5.59628">
        <ele>292.8587646</ele>
        <time>2009-11-22T08:08:51Z</time>
      </trkpt>
      <trkpt lat="43.3633" lon="5.59635">
        <ele>292.3781738</ele>
        <time>2009-11-22T08:08:55Z</time>
      </trkpt>
      <trkpt lat="43.36328" lon="5.59642">
        <ele>291.8974609</ele>
        <time>2009-11-22T08:08:56Z</time>
      </trkpt>
      <trkpt lat="43.36324" lon="5.59662">
        <ele>291.8974609</ele>
        <time>2009-11-22T08:08:59Z</time>
      </trkpt>
      <trkpt lat="43.36322" lon="5.59682">
        <ele>291.416748</ele>
        <time>2009-11-22T08:09:02Z</time>
      </trkpt>
      <trkpt lat="43.36317" lon="5.59705">
        <ele>292.8587646</ele>
        <time>2009-11-22T08:09:06Z</time>
      </trkpt>
      <trkpt lat="43.36309" lon="5.59704">
        <ele>293.8200684</ele>
        <time>2009-11-22T08:09:09Z</time>
      </trkpt>
      <trkpt lat="43.36305" lon="5.59698">
        <ele>294.7813721</ele>
        <time>2009-11-22T08:09:11Z</time>
      </trkpt>
      <trkpt lat="43.3629" lon="5.59679">
        <ele>297.1846924</ele>
        <time>2009-11-22T08:09:18Z</time>
      </trkpt>
      <trkpt lat="43.36277" lon="5.59653">
        <ele>298.626709</ele>
        <time>2009-11-22T08:09:25Z</time>
      </trkpt>
      <trkpt lat="43.36268" lon="5.59643">
        <ele>298.626709</ele>
        <time>2009-11-22T08:09:29Z</time>
      </trkpt>
      <trkpt lat="43.36253" lon="5.59643">
        <ele>299.1072998</ele>
        <time>2009-11-22T08:09:34Z</time>
      </trkpt>
      <trkpt lat="43.36234" lon="5.59648">
        <ele>299.5880127</ele>
        <time>2009-11-22T08:09:40Z</time>
      </trkpt>
      <trkpt lat="43.36207" lon="5.59654">
        <ele>300.0687256</ele>
        <time>2009-11-22T08:09:48Z</time>
      </trkpt>
      <trkpt lat="43.3617" lon="5.59654">
        <ele>301.0299072</ele>
        <time>2009-11-22T08:09:58Z</time>
      </trkpt>
      <trkpt lat="43.36154" lon="5.59655">
        <ele>301.5106201</ele>
        <time>2009-11-22T08:10:02Z</time>
      </trkpt>
      <trkpt lat="43.3614" lon="5.59642">
        <ele>301.5106201</ele>
        <time>2009-11-22T08:10:06Z</time>
      </trkpt>
      <trkpt lat="43.36116" lon="5.59628">
        <ele>302.4719238</ele>
        <time>2009-11-22T08:10:12Z</time>
      </trkpt>
      <trkpt lat="43.36096" lon="5.59606">
        <ele>302.4719238</ele>
        <time>2009-11-22T08:10:18Z</time>
      </trkpt>
      <trkpt lat="43.36089" lon="5.59599">
        <ele>302.4719238</ele>
        <time>2009-11-22T08:10:20Z</time>
      </trkpt>
      <trkpt lat="43.36081" lon="5.59594">
        <ele>302.4719238</ele>
        <time>2009-11-22T08:10:22Z</time>
      </trkpt>
      <trkpt lat="43.36061" lon="5.59583">
        <ele>303.4332275</ele>
        <time>2009-11-22T08:10:27Z</time>
      </trkpt>
      <trkpt lat="43.3605" lon="5.59564">
        <ele>305.355957</ele>
        <time>2009-11-22T08:10:32Z</time>
      </trkpt>
      <trkpt lat="43.36056" lon="5.59549">
        <ele>307.2785645</ele>
        <time>2009-11-22T08:10:36Z</time>
      </trkpt>
      <trkpt lat="43.36061" lon="5.59544">
        <ele>308.2398682</ele>
        <time>2009-11-22T08:10:38Z</time>
      </trkpt>
      <trkpt lat="43.36074" lon="5.5953">
        <ele>310.1624756</ele>
        <time>2009-11-22T08:10:43Z</time>
      </trkpt>
      <trkpt lat="43.36088" lon="5.59505">
        <ele>314.0078125</ele>
        <time>2009-11-22T08:10:51Z</time>
      </trkpt>
      <trkpt lat="43.3609" lon="5.59486">
        <ele>315.9304199</ele>
        <time>2009-11-22T08:10:57Z</time>
      </trkpt>
      <trkpt lat="43.36093" lon="5.59464">
        <ele>317.8530273</ele>
        <time>2009-11-22T08:11:04Z</time>
      </trkpt>
      <trkpt lat="43.36092" lon="5.59445">
        <ele>320.2563477</ele>
        <time>2009-11-22T08:11:11Z</time>
      </trkpt>
      <trkpt lat="43.3609" lon="5.59443">
        <ele>321.6983643</ele>
        <time>2009-11-22T08:11:13Z</time>
      </trkpt>
      <trkpt lat="43.36083" lon="5.59448">
        <ele>323.1403809</ele>
        <time>2009-11-22T08:11:18Z</time>
      </trkpt>
      <trkpt lat="43.36075" lon="5.5947">
        <ele>324.5822754</ele>
        <time>2009-11-22T08:11:26Z</time>
      </trkpt>
      <trkpt lat="43.36059" lon="5.59489">
        <ele>325.5435791</ele>
        <time>2009-11-22T08:11:35Z</time>
      </trkpt>
      <trkpt lat="43.36042" lon="5.59507">
        <ele>326.5048828</ele>
        <time>2009-11-22T08:11:43Z</time>
      </trkpt>
      <trkpt lat="43.36027" lon="5.5952">
        <ele>327.9467773</ele>
        <time>2009-11-22T08:11:50Z</time>
      </trkpt>
      <trkpt lat="43.36012" lon="5.59535">
        <ele>329.388916</ele>
        <time>2009-11-22T08:11:58Z</time>
      </trkpt>
      <trkpt lat="43.36001" lon="5.59552">
        <ele>331.3115234</ele>
        <time>2009-11-22T08:12:05Z</time>
      </trkpt>
      <trkpt lat="43.35988" lon="5.59574">
        <ele>333.7147217</ele>
        <time>2009-11-22T08:12:14Z</time>
      </trkpt>
      <trkpt lat="43.35982" lon="5.5959">
        <ele>335.1567383</ele>
        <time>2009-11-22T08:12:20Z</time>
      </trkpt>
      <trkpt lat="43.35975" lon="5.59614">
        <ele>337.0794678</ele>
        <time>2009-11-22T08:12:28Z</time>
      </trkpt>
      <trkpt lat="43.35971" lon="5.59638">
        <ele>339.9633789</ele>
        <time>2009-11-22T08:12:37Z</time>
      </trkpt>
      <trkpt lat="43.35968" lon="5.59643">
        <ele>340.4440918</ele>
        <time>2009-11-22T08:12:39Z</time>
      </trkpt>
      <trkpt lat="43.35959" lon="5.59638">
        <ele>341.8859863</ele>
        <time>2009-11-22T08:12:44Z</time>
      </trkpt>
      <trkpt lat="43.35957" lon="5.59631">
        <ele>341.8859863</ele>
        <time>2009-11-22T08:12:46Z</time>
      </trkpt>
      <trkpt lat="43.3595" lon="5.59596">
        <ele>342.3666992</ele>
        <time>2009-11-22T08:12:53Z</time>
      </trkpt>
      <trkpt lat="43.35937" lon="5.59557">
        <ele>342.84729</ele>
        <time>2009-11-22T08:13:01Z</time>
      </trkpt>
      <trkpt lat="43.3593" lon="5.59522">
        <ele>344.2894287</ele>
        <time>2009-11-22T08:13:08Z</time>
      </trkpt>
      <trkpt lat="43.35921" lon="5.59493">
        <ele>346.692627</ele>
        <time>2009-11-22T08:13:15Z</time>
      </trkpt>
      <trkpt lat="43.35907" lon="5.59469">
        <ele>346.2120361</ele>
        <time>2009-11-22T08:13:20Z</time>
      </trkpt>
      <trkpt lat="43.35903" lon="5.59465">
        <ele>346.2120361</ele>
        <time>2009-11-22T08:13:21Z</time>
      </trkpt>
      <trkpt lat="43.35874" lon="5.59456">
        <ele>344.7700195</ele>
        <time>2009-11-22T08:13:26Z</time>
      </trkpt>
      <trkpt lat="43.35853" lon="5.59442">
        <ele>343.3278809</ele>
        <time>2009-11-22T08:13:30Z</time>
      </trkpt>
      <trkpt lat="43.35848" lon="5.59418">
        <ele>342.3666992</ele>
        <time>2009-11-22T08:13:33Z</time>
      </trkpt>
      <trkpt lat="43.35847" lon="5.59409">
        <ele>341.4052734</ele>
        <time>2009-11-22T08:13:34Z</time>
      </trkpt>
      <trkpt lat="43.35848" lon="5.59389">
        <ele>339.9633789</ele>
        <time>2009-11-22T08:13:36Z</time>
      </trkpt>
      <trkpt lat="43.35866" lon="5.59325">
        <ele>335.1567383</ele>
        <time>2009-11-22T08:13:42Z</time>
      </trkpt>
      <trkpt lat="43.35871" lon="5.59314">
        <ele>334.1954346</ele>
        <time>2009-11-22T08:13:43Z</time>
      </trkpt>
      <trkpt lat="43.3588" lon="5.59263">
        <ele>330.8309326</ele>
        <time>2009-11-22T08:13:47Z</time>
      </trkpt>
      <trkpt lat="43.35873" lon="5.59238">
        <ele>328.9083252</ele>
        <time>2009-11-22T08:13:49Z</time>
      </trkpt>
      <trkpt lat="43.35847" lon="5.59171">
        <ele>326.0241699</ele>
        <time>2009-11-22T08:13:55Z</time>
      </trkpt>
      <trkpt lat="43.35841" lon="5.59133">
        <ele>325.0629883</ele>
        <time>2009-11-22T08:13:59Z</time>
      </trkpt>
      <trkpt lat="43.35834" lon="5.5911">
        <ele>326.9855957</ele>
        <time>2009-11-22T08:14:03Z</time>
      </trkpt>
      <trkpt lat="43.35831" lon="5.59107">
        <ele>327.4661865</ele>
        <time>2009-11-22T08:14:04Z</time>
      </trkpt>
      <trkpt lat="43.35827" lon="5.59102">
        <ele>328.9083252</ele>
        <time>2009-11-22T08:14:06Z</time>
      </trkpt>
      <trkpt lat="43.35817" lon="5.59089">
        <ele>330.8309326</ele>
        <time>2009-11-22T08:14:11Z</time>
      </trkpt>
      <trkpt lat="43.35806" lon="5.59066">
        <ele>334.1954346</ele>
        <time>2009-11-22T08:14:19Z</time>
      </trkpt>
      <trkpt lat="43.35799" lon="5.5905">
        <ele>336.598877</ele>
        <time>2009-11-22T08:14:25Z</time>
      </trkpt>
      <trkpt lat="43.35787" lon="5.59031">
        <ele>338.5214844</ele>
        <time>2009-11-22T08:14:33Z</time>
      </trkpt>
      <trkpt lat="43.35778" lon="5.59011">
        <ele>341.4052734</ele>
        <time>2009-11-22T08:14:41Z</time>
      </trkpt>
      <trkpt lat="43.35772" lon="5.58989">
        <ele>344.2894287</ele>
        <time>2009-11-22T08:14:50Z</time>
      </trkpt>
      <trkpt lat="43.35769" lon="5.58972">
        <ele>345.7313232</ele>
        <time>2009-11-22T08:14:56Z</time>
      </trkpt>
      <trkpt lat="43.35764" lon="5.58956">
        <ele>347.6539307</ele>
        <time>2009-11-22T08:15:03Z</time>
      </trkpt>
      <trkpt lat="43.3576" lon="5.58936">
        <ele>349.5765381</ele>
        <time>2009-11-22T08:15:11Z</time>
      </trkpt>
      <trkpt lat="43.35759" lon="5.58921">
        <ele>351.4991455</ele>
        <time>2009-11-22T08:15:18Z</time>
      </trkpt>
      <trkpt lat="43.3576" lon="5.58898">
        <ele>355.3444824</ele>
        <time>2009-11-22T08:15:28Z</time>
      </trkpt>
      <trkpt lat="43.35759" lon="5.58879">
        <ele>356.786377</ele>
        <time>2009-11-22T08:15:36Z</time>
      </trkpt>
      <trkpt lat="43.35757" lon="5.58863">
        <ele>358.2283936</ele>
        <time>2009-11-22T08:15:43Z</time>
      </trkpt>
      <trkpt lat="43.35753" lon="5.58849">
        <ele>359.1896973</ele>
        <time>2009-11-22T08:15:49Z</time>
      </trkpt>
      <trkpt lat="43.35744" lon="5.58835">
        <ele>361.5931396</ele>
        <time>2009-11-22T08:15:57Z</time>
      </trkpt>
      <trkpt lat="43.35736" lon="5.58822">
        <ele>363.0350342</ele>
        <time>2009-11-22T08:16:03Z</time>
      </trkpt>
      <trkpt lat="43.35737" lon="5.5882">
        <ele>363.9963379</ele>
        <time>2009-11-22T08:16:04Z</time>
      </trkpt>
      <trkpt lat="43.35744" lon="5.58816">
        <ele>364.4769287</ele>
        <time>2009-11-22T08:16:08Z</time>
      </trkpt>
      <trkpt lat="43.35755" lon="5.58824">
        <ele>365.4383545</ele>
        <time>2009-11-22T08:16:14Z</time>
      </trkpt>
      <trkpt lat="43.35767" lon="5.58837">
        <ele>366.3995361</ele>
        <time>2009-11-22T08:16:22Z</time>
      </trkpt>
      <trkpt lat="43.35776" lon="5.58852">
        <ele>367.8415527</ele>
        <time>2009-11-22T08:16:29Z</time>
      </trkpt>
      <trkpt lat="43.35787" lon="5.58874">
        <ele>368.8029785</ele>
        <time>2009-11-22T08:16:39Z</time>
      </trkpt>
      <trkpt lat="43.35795" lon="5.58891">
        <ele>370.7255859</ele>
        <time>2009-11-22T08:16:47Z</time>
      </trkpt>
      <trkpt lat="43.35804" lon="5.58905">
        <ele>372.6481934</ele>
        <time>2009-11-22T08:16:54Z</time>
      </trkpt>
      <trkpt lat="43.35816" lon="5.58916">
        <ele>374.5708008</ele>
        <time>2009-11-22T08:17:02Z</time>
      </trkpt>
      <trkpt lat="43.35829" lon="5.58916">
        <ele>376.9742432</ele>
        <time>2009-11-22T08:17:09Z</time>
      </trkpt>
      <trkpt lat="43.35843" lon="5.58907">
        <ele>378.8968506</ele>
        <time>2009-11-22T08:17:17Z</time>
      </trkpt>
      <trkpt lat="43.35855" lon="5.58898">
        <ele>379.3774414</ele>
        <time>2009-11-22T08:17:24Z</time>
      </trkpt>
      <trkpt lat="43.35869" lon="5.58895">
        <ele>380.819458</ele>
        <time>2009-11-22T08:17:31Z</time>
      </trkpt>
      <trkpt lat="43.35879" lon="5.589">
        <ele>382.2613525</ele>
        <time>2009-11-22T08:17:37Z</time>
      </trkpt>
      <trkpt lat="43.35888" lon="5.58918">
        <ele>384.6647949</ele>
        <time>2009-11-22T08:17:45Z</time>
      </trkpt>
      <trkpt lat="43.35898" lon="5.58937">
        <ele>387.548584</ele>
        <time>2009-11-22T08:17:53Z</time>
      </trkpt>
      <trkpt lat="43.35907" lon="5.58951">
        <ele>389.4711914</ele>
        <time>2009-11-22T08:18:00Z</time>
      </trkpt>
      <trkpt lat="43.3592" lon="5.5896">
        <ele>392.3553467</ele>
        <time>2009-11-22T08:18:08Z</time>
      </trkpt>
      <trkpt lat="43.35935" lon="5.58962">
        <ele>394.7585449</ele>
        <time>2009-11-22T08:18:16Z</time>
      </trkpt>
      <trkpt lat="43.3595" lon="5.58954">
        <ele>398.1231689</ele>
        <time>2009-11-22T08:18:24Z</time>
      </trkpt>
      <trkpt lat="43.35958" lon="5.58942">
        <ele>398.6037598</ele>
        <time>2009-11-22T08:18:30Z</time>
      </trkpt>
      <trkpt lat="43.35966" lon="5.58922">
        <ele>399.0843506</ele>
        <time>2009-11-22T08:18:39Z</time>
      </trkpt>
      <trkpt lat="43.35975" lon="5.58908">
        <ele>399.5650635</ele>
        <time>2009-11-22T08:18:46Z</time>
      </trkpt>
      <trkpt lat="43.35988" lon="5.5891">
        <ele>401.487793</ele>
        <time>2009-11-22T08:18:53Z</time>
      </trkpt>
      <trkpt lat="43.35993" lon="5.58921">
        <ele>403.4104004</ele>
        <time>2009-11-22T08:18:59Z</time>
      </trkpt>
      <trkpt lat="43.35999" lon="5.58927">
        <ele>405.3330078</ele>
        <time>2009-11-22T08:19:04Z</time>
      </trkpt>
      <trkpt lat="43.36005" lon="5.5892">
        <ele>406.2943115</ele>
        <time>2009-11-22T08:19:09Z</time>
      </trkpt>
      <trkpt lat="43.36002" lon="5.58909">
        <ele>407.7363281</ele>
        <time>2009-11-22T08:19:13Z</time>
      </trkpt>
      <trkpt lat="43.35994" lon="5.58892">
        <ele>409.6590576</ele>
        <time>2009-11-22T08:19:20Z</time>
      </trkpt>
      <trkpt lat="43.35985" lon="5.58876">
        <ele>412.0622559</ele>
        <time>2009-11-22T08:19:28Z</time>
      </trkpt>
      <trkpt lat="43.35978" lon="5.58864">
        <ele>415.4268799</ele>
        <time>2009-11-22T08:19:35Z</time>
      </trkpt>
      <trkpt lat="43.35977" lon="5.58862">
        <ele>415.9074707</ele>
        <time>2009-11-22T08:19:36Z</time>
      </trkpt>
      <trkpt lat="43.35982" lon="5.58852">
        <ele>416.8688965</ele>
        <time>2009-11-22T08:19:41Z</time>
      </trkpt>
      <trkpt lat="43.35991" lon="5.58859">
        <ele>417.3496094</ele>
        <time>2009-11-22T08:19:47Z</time>
      </trkpt>
      <trkpt lat="43.35994" lon="5.58862">
        <ele>417.8302002</ele>
        <time>2009-11-22T08:19:49Z</time>
      </trkpt>
      <trkpt lat="43.36007" lon="5.58869">
        <ele>418.7915039</ele>
        <time>2009-11-22T08:19:56Z</time>
      </trkpt>
      <trkpt lat="43.36024" lon="5.58875">
        <ele>420.7141113</ele>
        <time>2009-11-22T08:20:05Z</time>
      </trkpt>
      <trkpt lat="43.36033" lon="5.58869">
        <ele>421.675415</ele>
        <time>2009-11-22T08:20:10Z</time>
      </trkpt>
      <trkpt lat="43.36038" lon="5.58854">
        <ele>423.1174316</ele>
        <time>2009-11-22T08:20:16Z</time>
      </trkpt>
      <trkpt lat="43.3604" lon="5.58833">
        <ele>425.0401611</ele>
        <time>2009-11-22T08:20:24Z</time>
      </trkpt>
      <trkpt lat="43.36039" lon="5.58819">
        <ele>426.4820557</ele>
        <time>2009-11-22T08:20:30Z</time>
      </trkpt>
      <trkpt lat="43.36031" lon="5.58811">
        <ele>429.3659668</ele>
        <time>2009-11-22T08:20:37Z</time>
      </trkpt>
      <trkpt lat="43.36026" lon="5.58811">
        <ele>429.8465576</ele>
        <time>2009-11-22T08:20:40Z</time>
      </trkpt>
      <trkpt lat="43.36008" lon="5.5881">
        <ele>432.25</ele>
        <time>2009-11-22T08:20:50Z</time>
      </trkpt>
      <trkpt lat="43.35997" lon="5.58802">
        <ele>433.6918945</ele>
        <time>2009-11-22T08:20:57Z</time>
      </trkpt>
      <trkpt lat="43.3599" lon="5.58794">
        <ele>435.1339111</ele>
        <time>2009-11-22T08:21:02Z</time>
      </trkpt>
      <trkpt lat="43.35976" lon="5.58782">
        <ele>437.5371094</ele>
        <time>2009-11-22T08:21:11Z</time>
      </trkpt>
      <trkpt lat="43.35968" lon="5.58778">
        <ele>439.4597168</ele>
        <time>2009-11-22T08:21:16Z</time>
      </trkpt>
      <trkpt lat="43.35954" lon="5.58774">
        <ele>440.9018555</ele>
        <time>2009-11-22T08:21:24Z</time>
      </trkpt>
      <trkpt lat="43.35942" lon="5.5877">
        <ele>442.3438721</ele>
        <time>2009-11-22T08:21:31Z</time>
      </trkpt>
      <trkpt lat="43.35932" lon="5.58756">
        <ele>443.7857666</ele>
        <time>2009-11-22T08:21:38Z</time>
      </trkpt>
      <trkpt lat="43.35934" lon="5.58736">
        <ele>445.2276611</ele>
        <time>2009-11-22T08:21:45Z</time>
      </trkpt>
      <trkpt lat="43.3594" lon="5.5872">
        <ele>447.1502686</ele>
        <time>2009-11-22T08:21:51Z</time>
      </trkpt>
      <trkpt lat="43.35945" lon="5.58706">
        <ele>449.072998</ele>
        <time>2009-11-22T08:21:57Z</time>
      </trkpt>
      <trkpt lat="43.35951" lon="5.58687">
        <ele>451.9570313</ele>
        <time>2009-11-22T08:22:06Z</time>
      </trkpt>
      <trkpt lat="43.35955" lon="5.58671">
        <ele>453.8796387</ele>
        <time>2009-11-22T08:22:13Z</time>
      </trkpt>
      <trkpt lat="43.35962" lon="5.58651">
        <ele>457.7249756</ele>
        <time>2009-11-22T08:22:23Z</time>
      </trkpt>
      <trkpt lat="43.35964" lon="5.58634">
        <ele>458.6861572</ele>
        <time>2009-11-22T08:22:29Z</time>
      </trkpt>
      <trkpt lat="43.3596" lon="5.58613">
        <ele>459.647583</ele>
        <time>2009-11-22T08:22:36Z</time>
      </trkpt>
      <trkpt lat="43.35955" lon="5.58595">
        <ele>461.0894775</ele>
        <time>2009-11-22T08:22:43Z</time>
      </trkpt>
      <trkpt lat="43.35947" lon="5.58573">
        <ele>463.012085</ele>
        <time>2009-11-22T08:22:52Z</time>
      </trkpt>
      <trkpt lat="43.35939" lon="5.58548">
        <ele>464.4541016</ele>
        <time>2009-11-22T08:23:01Z</time>
      </trkpt>
      <trkpt lat="43.3593" lon="5.58522">
        <ele>465.8961182</ele>
        <time>2009-11-22T08:23:10Z</time>
      </trkpt>
      <trkpt lat="43.35924" lon="5.58503">
        <ele>467.3381348</ele>
        <time>2009-11-22T08:23:17Z</time>
      </trkpt>
      <trkpt lat="43.3592" lon="5.58483">
        <ele>468.7800293</ele>
        <time>2009-11-22T08:23:24Z</time>
      </trkpt>
      <trkpt lat="43.35917" lon="5.58459">
        <ele>470.7026367</ele>
        <time>2009-11-22T08:23:32Z</time>
      </trkpt>
      <trkpt lat="43.35917" lon="5.58437">
        <ele>472.1446533</ele>
        <time>2009-11-22T08:23:39Z</time>
      </trkpt>
      <trkpt lat="43.35923" lon="5.58412">
        <ele>473.5866699</ele>
        <time>2009-11-22T08:23:47Z</time>
      </trkpt>
      <trkpt lat="43.35937" lon="5.58394">
        <ele>475.0286865</ele>
        <time>2009-11-22T08:23:54Z</time>
      </trkpt>
      <trkpt lat="43.35952" lon="5.58385">
        <ele>476.9512939</ele>
        <time>2009-11-22T08:24:01Z</time>
      </trkpt>
      <trkpt lat="43.35971" lon="5.5838">
        <ele>478.3931885</ele>
        <time>2009-11-22T08:24:09Z</time>
      </trkpt>
      <trkpt lat="43.35989" lon="5.58371">
        <ele>480.315918</ele>
        <time>2009-11-22T08:24:18Z</time>
      </trkpt>
      <trkpt lat="43.36003" lon="5.58356">
        <ele>481.7578125</ele>
        <time>2009-11-22T08:24:27Z</time>
      </trkpt>
      <trkpt lat="43.36012" lon="5.58342">
        <ele>482.7192383</ele>
        <time>2009-11-22T08:24:34Z</time>
      </trkpt>
      <trkpt lat="43.36019" lon="5.58322">
        <ele>484.6418457</ele>
        <time>2009-11-22T08:24:42Z</time>
      </trkpt>
      <trkpt lat="43.36025" lon="5.58304">
        <ele>485.1224365</ele>
        <time>2009-11-22T08:24:49Z</time>
      </trkpt>
      <trkpt lat="43.36032" lon="5.58286">
        <ele>487.0450439</ele>
        <time>2009-11-22T08:24:55Z</time>
      </trkpt>
      <trkpt lat="43.36044" lon="5.58259">
        <ele>489.4483643</ele>
        <time>2009-11-22T08:25:05Z</time>
      </trkpt>
      <trkpt lat="43.36055" lon="5.58235">
        <ele>490.40979</ele>
        <time>2009-11-22T08:25:13Z</time>
      </trkpt>
      <trkpt lat="43.36068" lon="5.58214">
        <ele>488.9677734</ele>
        <time>2009-11-22T08:25:17Z</time>
      </trkpt>
      <trkpt lat="43.36078" lon="5.58204">
        <ele>488.0064697</ele>
        <time>2009-11-22T08:25:19Z</time>
      </trkpt>
      <trkpt lat="43.36109" lon="5.58155">
        <ele>483.6804199</ele>
        <time>2009-11-22T08:25:25Z</time>
      </trkpt>
      <trkpt lat="43.36118" lon="5.58139">
        <ele>481.2772217</ele>
        <time>2009-11-22T08:25:27Z</time>
      </trkpt>
      <trkpt lat="43.36132" lon="5.5812">
        <ele>479.3544922</ele>
        <time>2009-11-22T08:25:30Z</time>
      </trkpt>
      <trkpt lat="43.36138" lon="5.58103">
        <ele>475.9898682</ele>
        <time>2009-11-22T08:25:34Z</time>
      </trkpt>
      <trkpt lat="43.36125" lon="5.58091">
        <ele>474.5479736</ele>
        <time>2009-11-22T08:25:37Z</time>
      </trkpt>
      <trkpt lat="43.36119" lon="5.58072">
        <ele>474.5479736</ele>
        <time>2009-11-22T08:25:40Z</time>
      </trkpt>
      <trkpt lat="43.36118" lon="5.58066">
        <ele>474.5479736</ele>
        <time>2009-11-22T08:25:41Z</time>
      </trkpt>
      <trkpt lat="43.36117" lon="5.58055">
        <ele>475.0286865</ele>
        <time>2009-11-22T08:25:43Z</time>
      </trkpt>
      <trkpt lat="43.36111" lon="5.58031">
        <ele>475.5092773</ele>
        <time>2009-11-22T08:25:48Z</time>
      </trkpt>
      <trkpt lat="43.361" lon="5.58008">
        <ele>476.9512939</ele>
        <time>2009-11-22T08:25:55Z</time>
      </trkpt>
      <trkpt lat="43.36097" lon="5.57984">
        <ele>479.3544922</ele>
        <time>2009-11-22T08:26:03Z</time>
      </trkpt>
      <trkpt lat="43.36104" lon="5.57971">
        <ele>481.2772217</ele>
        <time>2009-11-22T08:26:09Z</time>
      </trkpt>
      <trkpt lat="43.36113" lon="5.57959">
        <ele>483.6804199</ele>
        <time>2009-11-22T08:26:16Z</time>
      </trkpt>
      <trkpt lat="43.36123" lon="5.57943">
        <ele>486.5644531</ele>
        <time>2009-11-22T08:26:26Z</time>
      </trkpt>
      <trkpt lat="43.36135" lon="5.5793">
        <ele>489.9290771</ele>
        <time>2009-11-22T08:26:36Z</time>
      </trkpt>
      <trkpt lat="43.36145" lon="5.57922">
        <ele>491.3709717</ele>
        <time>2009-11-22T08:26:43Z</time>
      </trkpt>
      <trkpt lat="43.36159" lon="5.57914">
        <ele>493.774292</ele>
        <time>2009-11-22T08:26:52Z</time>
      </trkpt>
      <trkpt lat="43.36172" lon="5.57906">
        <ele>496.1777344</ele>
        <time>2009-11-22T08:27:00Z</time>
      </trkpt>
      <trkpt lat="43.36187" lon="5.57898">
        <ele>497.6196289</ele>
        <time>2009-11-22T08:27:08Z</time>
      </trkpt>
      <trkpt lat="43.36202" lon="5.57888">
        <ele>499.5422363</ele>
        <time>2009-11-22T08:27:16Z</time>
      </trkpt>
      <trkpt lat="43.36216" lon="5.57879">
        <ele>500.9841309</ele>
        <time>2009-11-22T08:27:23Z</time>
      </trkpt>
      <trkpt lat="43.36236" lon="5.57872">
        <ele>501.9455566</ele>
        <time>2009-11-22T08:27:32Z</time>
      </trkpt>
      <trkpt lat="43.36251" lon="5.57868">
        <ele>503.3874512</ele>
        <time>2009-11-22T08:27:39Z</time>
      </trkpt>
      <trkpt lat="43.36269" lon="5.57863">
        <ele>504.8294678</ele>
        <time>2009-11-22T08:27:47Z</time>
      </trkpt>
      <trkpt lat="43.36279" lon="5.57853">
        <ele>505.3101807</ele>
        <time>2009-11-22T08:27:52Z</time>
      </trkpt>
      <trkpt lat="43.36283" lon="5.57832">
        <ele>506.7520752</ele>
        <time>2009-11-22T08:27:58Z</time>
      </trkpt>
      <trkpt lat="43.36278" lon="5.57812">
        <ele>508.6746826</ele>
        <time>2009-11-22T08:28:05Z</time>
      </trkpt>
      <trkpt lat="43.36268" lon="5.57784">
        <ele>511.0780029</ele>
        <time>2009-11-22T08:28:15Z</time>
      </trkpt>
      <trkpt lat="43.3626" lon="5.57752">
        <ele>510.59729</ele>
        <time>2009-11-22T08:28:23Z</time>
      </trkpt>
      <trkpt lat="43.36252" lon="5.57731">
        <ele>510.59729</ele>
        <time>2009-11-22T08:28:28Z</time>
      </trkpt>
      <trkpt lat="43.36256" lon="5.57713">
        <ele>511.0780029</ele>
        <time>2009-11-22T08:28:32Z</time>
      </trkpt>
      <trkpt lat="43.36267" lon="5.57693">
        <ele>512.5200195</ele>
        <time>2009-11-22T08:28:39Z</time>
      </trkpt>
      <trkpt lat="43.36268" lon="5.57679">
        <ele>514.9233398</ele>
        <time>2009-11-22T08:28:45Z</time>
      </trkpt>
      <trkpt lat="43.36269" lon="5.57661">
        <ele>516.8459473</ele>
        <time>2009-11-22T08:28:53Z</time>
      </trkpt>
      <trkpt lat="43.36265" lon="5.57651">
        <ele>518.7685547</ele>
        <time>2009-11-22T08:28:58Z</time>
      </trkpt>
      <trkpt lat="43.36253" lon="5.57653">
        <ele>520.6912842</ele>
        <time>2009-11-22T08:29:05Z</time>
      </trkpt>
      <trkpt lat="43.36236" lon="5.57662">
        <ele>522.6138916</ele>
        <time>2009-11-22T08:29:14Z</time>
      </trkpt>
      <trkpt lat="43.36218" lon="5.57675">
        <ele>524.536499</ele>
        <time>2009-11-22T08:29:24Z</time>
      </trkpt>
      <trkpt lat="43.36205" lon="5.57684">
        <ele>525.4978027</ele>
        <time>2009-11-22T08:29:31Z</time>
      </trkpt>
      <trkpt lat="43.3619" lon="5.57701">
        <ele>527.4204102</ele>
        <time>2009-11-22T08:29:40Z</time>
      </trkpt>
      <trkpt lat="43.36175" lon="5.57719">
        <ele>529.3431396</ele>
        <time>2009-11-22T08:29:49Z</time>
      </trkpt>
      <trkpt lat="43.36166" lon="5.57731">
        <ele>530.7851563</ele>
        <time>2009-11-22T08:29:55Z</time>
      </trkpt>
      <trkpt lat="43.36156" lon="5.57737">
        <ele>532.7077637</ele>
        <time>2009-11-22T08:30:01Z</time>
      </trkpt>
      <trkpt lat="43.36148" lon="5.57734">
        <ele>534.6303711</ele>
        <time>2009-11-22T08:30:06Z</time>
      </trkpt>
      <trkpt lat="43.36141" lon="5.57716">
        <ele>537.0336914</ele>
        <time>2009-11-22T08:30:14Z</time>
      </trkpt>
      <trkpt lat="43.36137" lon="5.57695">
        <ele>538.475708</ele>
        <time>2009-11-22T08:30:22Z</time>
      </trkpt>
      <trkpt lat="43.36133" lon="5.57677">
        <ele>539.4368896</ele>
        <time>2009-11-22T08:30:29Z</time>
      </trkpt>
      <trkpt lat="43.36127" lon="5.57658">
        <ele>541.84021</ele>
        <time>2009-11-22T08:30:38Z</time>
      </trkpt>
      <trkpt lat="43.36121" lon="5.57641">
        <ele>543.2821045</ele>
        <time>2009-11-22T08:30:45Z</time>
      </trkpt>
      <trkpt lat="43.36114" lon="5.57615">
        <ele>544.7242432</ele>
        <time>2009-11-22T08:30:54Z</time>
      </trkpt>
      <trkpt lat="43.36107" lon="5.5759">
        <ele>545.6855469</ele>
        <time>2009-11-22T08:31:01Z</time>
      </trkpt>
      <trkpt lat="43.36101" lon="5.57557">
        <ele>547.1274414</ele>
        <time>2009-11-22T08:31:09Z</time>
      </trkpt>
      <trkpt lat="43.36096" lon="5.57523">
        <ele>548.0888672</ele>
        <time>2009-11-22T08:31:17Z</time>
      </trkpt>
      <trkpt lat="43.36096" lon="5.57488">
        <ele>550.0114746</ele>
        <time>2009-11-22T08:31:25Z</time>
      </trkpt>
      <trkpt lat="43.361" lon="5.57455">
        <ele>550.4921875</ele>
        <time>2009-11-22T08:31:32Z</time>
      </trkpt>
      <trkpt lat="43.36103" lon="5.57415">
        <ele>550.9726563</ele>
        <time>2009-11-22T08:31:39Z</time>
      </trkpt>
      <trkpt lat="43.36101" lon="5.57393">
        <ele>550.4921875</ele>
        <time>2009-11-22T08:31:43Z</time>
      </trkpt>
      <trkpt lat="43.36092" lon="5.57362">
        <ele>552.4145508</ele>
        <time>2009-11-22T08:31:50Z</time>
      </trkpt>
      <trkpt lat="43.36086" lon="5.57346">
        <ele>553.3759766</ele>
        <time>2009-11-22T08:31:55Z</time>
      </trkpt>
      <trkpt lat="43.36076" lon="5.57325">
        <ele>554.3374023</ele>
        <time>2009-11-22T08:32:03Z</time>
      </trkpt>
      <trkpt lat="43.36066" lon="5.57303">
        <ele>556.7407227</ele>
        <time>2009-11-22T08:32:11Z</time>
      </trkpt>
      <trkpt lat="43.36056" lon="5.57284">
        <ele>558.1828613</ele>
        <time>2009-11-22T08:32:18Z</time>
      </trkpt>
      <trkpt lat="43.36047" lon="5.57265">
        <ele>560.1052246</ele>
        <time>2009-11-22T08:32:26Z</time>
      </trkpt>
      <trkpt lat="43.3604" lon="5.5725">
        <ele>562.5085449</ele>
        <time>2009-11-22T08:32:33Z</time>
      </trkpt>
      <trkpt lat="43.36037" lon="5.57236">
        <ele>564.4311523</ele>
        <time>2009-11-22T08:32:39Z</time>
      </trkpt>
      <trkpt lat="43.36031" lon="5.57223">
        <ele>565.873291</ele>
        <time>2009-11-22T08:32:45Z</time>
      </trkpt>
      <trkpt lat="43.36024" lon="5.5721">
        <ele>566.8344727</ele>
        <time>2009-11-22T08:32:50Z</time>
      </trkpt>
      <trkpt lat="43.36011" lon="5.5719">
        <ele>567.7956543</ele>
        <time>2009-11-22T08:32:57Z</time>
      </trkpt>
      <trkpt lat="43.35993" lon="5.57167">
        <ele>567.3151855</ele>
        <time>2009-11-22T08:33:03Z</time>
      </trkpt>
      <trkpt lat="43.35978" lon="5.57147">
        <ele>567.3151855</ele>
        <time>2009-11-22T08:33:08Z</time>
      </trkpt>
      <trkpt lat="43.35969" lon="5.57127">
        <ele>568.2763672</ele>
        <time>2009-11-22T08:33:13Z</time>
      </trkpt>
      <trkpt lat="43.35965" lon="5.57095">
        <ele>569.237793</ele>
        <time>2009-11-22T08:33:20Z</time>
      </trkpt>
      <trkpt lat="43.35965" lon="5.5709">
        <ele>568.7570801</ele>
        <time>2009-11-22T08:33:23Z</time>
      </trkpt>
      <trkpt lat="43.35963" lon="5.5708">
        <ele>569.237793</ele>
        <time>2009-11-22T08:33:34Z</time>
      </trkpt>
      <trkpt lat="43.35959" lon="5.57055">
        <ele>569.237793</ele>
        <time>2009-11-22T08:33:38Z</time>
      </trkpt>
      <trkpt lat="43.35953" lon="5.5703">
        <ele>566.8344727</ele>
        <time>2009-11-22T08:33:41Z</time>
      </trkpt>
      <trkpt lat="43.35947" lon="5.57013">
        <ele>566.3537598</ele>
        <time>2009-11-22T08:33:43Z</time>
      </trkpt>
      <trkpt lat="43.3593" lon="5.56984">
        <ele>564.4311523</ele>
        <time>2009-11-22T08:33:47Z</time>
      </trkpt>
      <trkpt lat="43.3592" lon="5.56959">
        <ele>562.9892578</ele>
        <time>2009-11-22T08:33:50Z</time>
      </trkpt>
      <trkpt lat="43.35923" lon="5.56933">
        <ele>562.5085449</ele>
        <time>2009-11-22T08:33:54Z</time>
      </trkpt>
      <trkpt lat="43.35924" lon="5.56908">
        <ele>562.9892578</ele>
        <time>2009-11-22T08:33:58Z</time>
      </trkpt>
      <trkpt lat="43.3592" lon="5.56897">
        <ele>563.4699707</ele>
        <time>2009-11-22T08:34:00Z</time>
      </trkpt>
      <trkpt lat="43.35909" lon="5.56883">
        <ele>564.4311523</ele>
        <time>2009-11-22T08:34:04Z</time>
      </trkpt>
      <trkpt lat="43.35889" lon="5.56868">
        <ele>568.2763672</ele>
        <time>2009-11-22T08:34:13Z</time>
      </trkpt>
      <trkpt lat="43.35875" lon="5.56856">
        <ele>570.1989746</ele>
        <time>2009-11-22T08:34:19Z</time>
      </trkpt>
      <trkpt lat="43.3586" lon="5.56845">
        <ele>571.1604004</ele>
        <time>2009-11-22T08:34:25Z</time>
      </trkpt>
      <trkpt lat="43.35839" lon="5.56842">
        <ele>571.1604004</ele>
        <time>2009-11-22T08:34:30Z</time>
      </trkpt>
      <trkpt lat="43.35829" lon="5.5684">
        <ele>570.6796875</ele>
        <time>2009-11-22T08:34:32Z</time>
      </trkpt>
      <trkpt lat="43.35814" lon="5.56823">
        <ele>570.6796875</ele>
        <time>2009-11-22T08:34:36Z</time>
      </trkpt>
      <trkpt lat="43.35812" lon="5.56817">
        <ele>570.6796875</ele>
        <time>2009-11-22T08:34:37Z</time>
      </trkpt>
      <trkpt lat="43.35795" lon="5.56773">
        <ele>571.6408691</ele>
        <time>2009-11-22T08:34:45Z</time>
      </trkpt>
      <trkpt lat="43.35788" lon="5.56755">
        <ele>571.6408691</ele>
        <time>2009-11-22T08:34:48Z</time>
      </trkpt>
      <trkpt lat="43.35784" lon="5.56712">
        <ele>572.1218262</ele>
        <time>2009-11-22T08:34:54Z</time>
      </trkpt>
      <trkpt lat="43.35784" lon="5.56681">
        <ele>571.1604004</ele>
        <time>2009-11-22T08:34:58Z</time>
      </trkpt>
      <trkpt lat="43.35782" lon="5.56653">
        <ele>569.7185059</ele>
        <time>2009-11-22T08:35:01Z</time>
      </trkpt>
      <trkpt lat="43.35764" lon="5.56607">
        <ele>568.2763672</ele>
        <time>2009-11-22T08:35:06Z</time>
      </trkpt>
      <trkpt lat="43.35741" lon="5.56587">
        <ele>568.2763672</ele>
        <time>2009-11-22T08:35:10Z</time>
      </trkpt>
      <trkpt lat="43.35736" lon="5.56586">
        <ele>568.7570801</ele>
        <time>2009-11-22T08:35:11Z</time>
      </trkpt>
      <trkpt lat="43.35706" lon="5.56584">
        <ele>569.7185059</ele>
        <time>2009-11-22T08:35:17Z</time>
      </trkpt>
      <trkpt lat="43.35684" lon="5.56569">
        <ele>570.1989746</ele>
        <time>2009-11-22T08:35:22Z</time>
      </trkpt>
      <trkpt lat="43.35682" lon="5.56562">
        <ele>570.1989746</ele>
        <time>2009-11-22T08:35:23Z</time>
      </trkpt>
      <trkpt lat="43.35662" lon="5.56533">
        <ele>571.1604004</ele>
        <time>2009-11-22T08:35:29Z</time>
      </trkpt>
      <trkpt lat="43.35647" lon="5.56519">
        <ele>571.6408691</ele>
        <time>2009-11-22T08:35:33Z</time>
      </trkpt>
      <trkpt lat="43.35647" lon="5.56498">
        <ele>571.6408691</ele>
        <time>2009-11-22T08:35:36Z</time>
      </trkpt>
      <trkpt lat="43.35647" lon="5.56471">
        <ele>572.1218262</ele>
        <time>2009-11-22T08:35:40Z</time>
      </trkpt>
      <trkpt lat="43.35642" lon="5.56462">
        <ele>573.083252</ele>
        <time>2009-11-22T08:35:42Z</time>
      </trkpt>
      <trkpt lat="43.35611" lon="5.56423">
        <ele>573.5639648</ele>
        <time>2009-11-22T08:35:51Z</time>
      </trkpt>
      <trkpt lat="43.35592" lon="5.56408">
        <ele>573.083252</ele>
        <time>2009-11-22T08:35:55Z</time>
      </trkpt>
      <trkpt lat="43.35554" lon="5.56372">
        <ele>573.083252</ele>
        <time>2009-11-22T08:36:03Z</time>
      </trkpt>
      <trkpt lat="43.35533" lon="5.56356">
        <ele>573.083252</ele>
        <time>2009-11-22T08:36:07Z</time>
      </trkpt>
      <trkpt lat="43.355" lon="5.5635">
        <ele>573.5639648</ele>
        <time>2009-11-22T08:36:13Z</time>
      </trkpt>
      <trkpt lat="43.35495" lon="5.56351">
        <ele>574.0444336</ele>
        <time>2009-11-22T08:36:14Z</time>
      </trkpt>
      <trkpt lat="43.35476" lon="5.56358">
        <ele>575.967041</ele>
        <time>2009-11-22T08:36:19Z</time>
      </trkpt>
      <trkpt lat="43.35463" lon="5.56356">
        <ele>577.4091797</ele>
        <time>2009-11-22T08:36:24Z</time>
      </trkpt>
      <trkpt lat="43.35462" lon="5.56344">
        <ele>577.8896484</ele>
        <time>2009-11-22T08:36:27Z</time>
      </trkpt>
      <trkpt lat="43.35463" lon="5.56338">
        <ele>577.8896484</ele>
        <time>2009-11-22T08:36:28Z</time>
      </trkpt>
      <trkpt lat="43.35473" lon="5.56306">
        <ele>577.4091797</ele>
        <time>2009-11-22T08:36:33Z</time>
      </trkpt>
      <trkpt lat="43.35475" lon="5.56267">
        <ele>578.3703613</ele>
        <time>2009-11-22T08:36:39Z</time>
      </trkpt>
      <trkpt lat="43.35476" lon="5.56242">
        <ele>579.331543</ele>
        <time>2009-11-22T08:36:44Z</time>
      </trkpt>
      <trkpt lat="43.35475" lon="5.56205">
        <ele>581.2543945</ele>
        <time>2009-11-22T08:36:52Z</time>
      </trkpt>
      <trkpt lat="43.3547" lon="5.56182">
        <ele>582.2155762</ele>
        <time>2009-11-22T08:36:57Z</time>
      </trkpt>
      <trkpt lat="43.35453" lon="5.56151">
        <ele>582.6962891</ele>
        <time>2009-11-22T08:37:04Z</time>
      </trkpt>
      <trkpt lat="43.3544" lon="5.56122">
        <ele>582.6962891</ele>
        <time>2009-11-22T08:37:09Z</time>
      </trkpt>
      <trkpt lat="43.35436" lon="5.56086">
        <ele>582.2155762</ele>
        <time>2009-11-22T08:37:14Z</time>
      </trkpt>
      <trkpt lat="43.35439" lon="5.56071">
        <ele>582.2155762</ele>
        <time>2009-11-22T08:37:16Z</time>
      </trkpt>
      <trkpt lat="43.35446" lon="5.56015">
        <ele>582.2155762</ele>
        <time>2009-11-22T08:37:23Z</time>
      </trkpt>
      <trkpt lat="43.35442" lon="5.55973">
        <ele>583.6574707</ele>
        <time>2009-11-22T08:37:30Z</time>
      </trkpt>
      <trkpt lat="43.35436" lon="5.55959">
        <ele>584.6188965</ele>
        <time>2009-11-22T08:37:34Z</time>
      </trkpt>
      <trkpt lat="43.35432" lon="5.55965">
        <ele>585.5800781</ele>
        <time>2009-11-22T08:37:37Z</time>
      </trkpt>
      <trkpt lat="43.35423" lon="5.55977">
        <ele>586.5415039</ele>
        <time>2009-11-22T08:37:41Z</time>
      </trkpt>
      <trkpt lat="43.35418" lon="5.55983">
        <ele>586.5415039</ele>
        <time>2009-11-22T08:37:43Z</time>
      </trkpt>
      <trkpt lat="43.35401" lon="5.56005">
        <ele>587.5026855</ele>
        <time>2009-11-22T08:37:49Z</time>
      </trkpt>
      <trkpt lat="43.35388" lon="5.56021">
        <ele>588.9450684</ele>
        <time>2009-11-22T08:37:54Z</time>
      </trkpt>
      <trkpt lat="43.35388" lon="5.56039">
        <ele>589.4255371</ele>
        <time>2009-11-22T08:37:58Z</time>
      </trkpt>
      <trkpt lat="43.35391" lon="5.56069">
        <ele>590.8674316</ele>
        <time>2009-11-22T08:38:05Z</time>
      </trkpt>
      <trkpt lat="43.35392" lon="5.56093">
        <ele>592.3095703</ele>
        <time>2009-11-22T08:38:12Z</time>
      </trkpt>
      <trkpt lat="43.35387" lon="5.56112">
        <ele>594.2321777</ele>
        <time>2009-11-22T08:38:19Z</time>
      </trkpt>
      <trkpt lat="43.35378" lon="5.56128">
        <ele>596.1547852</ele>
        <time>2009-11-22T08:38:27Z</time>
      </trkpt>
      <trkpt lat="43.35371" lon="5.56145">
        <ele>598.0773926</ele>
        <time>2009-11-22T08:38:34Z</time>
      </trkpt>
      <trkpt lat="43.35366" lon="5.56162">
        <ele>599.0385742</ele>
        <time>2009-11-22T08:38:40Z</time>
      </trkpt>
      <trkpt lat="43.35362" lon="5.56183">
        <ele>600.4807129</ele>
        <time>2009-11-22T08:38:47Z</time>
      </trkpt>
      <trkpt lat="43.35357" lon="5.5621">
        <ele>602.4030762</ele>
        <time>2009-11-22T08:38:56Z</time>
      </trkpt>
      <trkpt lat="43.35354" lon="5.56232">
        <ele>603.364502</ele>
        <time>2009-11-22T08:39:03Z</time>
      </trkpt>
      <trkpt lat="43.35352" lon="5.56257">
        <ele>604.8066406</ele>
        <time>2009-11-22T08:39:11Z</time>
      </trkpt>
      <trkpt lat="43.35347" lon="5.56288">
        <ele>606.729248</ele>
        <time>2009-11-22T08:39:20Z</time>
      </trkpt>
      <trkpt lat="43.35343" lon="5.56311">
        <ele>607.2099609</ele>
        <time>2009-11-22T08:39:26Z</time>
      </trkpt>
      <trkpt lat="43.35346" lon="5.56339">
        <ele>608.6518555</ele>
        <time>2009-11-22T08:39:34Z</time>
      </trkpt>
      <trkpt lat="43.35349" lon="5.56357">
        <ele>610.09375</ele>
        <time>2009-11-22T08:39:40Z</time>
      </trkpt>
      <trkpt lat="43.35349" lon="5.56362">
        <ele>610.5744629</ele>
        <time>2009-11-22T08:39:42Z</time>
      </trkpt>
      <trkpt lat="43.35342" lon="5.56374">
        <ele>611.5358887</ele>
        <time>2009-11-22T08:39:47Z</time>
      </trkpt>
      <trkpt lat="43.35327" lon="5.56391">
        <ele>612.4970703</ele>
        <time>2009-11-22T08:39:55Z</time>
      </trkpt>
      <trkpt lat="43.35313" lon="5.564">
        <ele>611.5358887</ele>
        <time>2009-11-22T08:40:00Z</time>
      </trkpt>
      <trkpt lat="43.35299" lon="5.56397">
        <ele>609.6132813</ele>
        <time>2009-11-22T08:40:03Z</time>
      </trkpt>
      <trkpt lat="43.35284" lon="5.56393">
        <ele>607.6906738</ele>
        <time>2009-11-22T08:40:06Z</time>
      </trkpt>
      <trkpt lat="43.35268" lon="5.56405">
        <ele>606.2485352</ele>
        <time>2009-11-22T08:40:10Z</time>
      </trkpt>
      <trkpt lat="43.35254" lon="5.56435">
        <ele>606.2485352</ele>
        <time>2009-11-22T08:40:16Z</time>
      </trkpt>
      <trkpt lat="43.35244" lon="5.56462">
        <ele>606.729248</ele>
        <time>2009-11-22T08:40:21Z</time>
      </trkpt>
      <trkpt lat="43.35224" lon="5.56503">
        <ele>606.2485352</ele>
        <time>2009-11-22T08:40:29Z</time>
      </trkpt>
      <trkpt lat="43.35217" lon="5.56515">
        <ele>607.2099609</ele>
        <time>2009-11-22T08:40:32Z</time>
      </trkpt>
      <trkpt lat="43.35206" lon="5.56547">
        <ele>609.1325684</ele>
        <time>2009-11-22T08:40:40Z</time>
      </trkpt>
      <trkpt lat="43.35193" lon="5.56584">
        <ele>610.5744629</ele>
        <time>2009-11-22T08:40:48Z</time>
      </trkpt>
      <trkpt lat="43.35193" lon="5.56608">
        <ele>612.0166016</ele>
        <time>2009-11-22T08:40:54Z</time>
      </trkpt>
      <trkpt lat="43.35201" lon="5.56625">
        <ele>613.4584961</ele>
        <time>2009-11-22T08:41:00Z</time>
      </trkpt>
      <trkpt lat="43.35211" lon="5.56633">
        <ele>615.3811035</ele>
        <time>2009-11-22T08:41:06Z</time>
      </trkpt>
      <trkpt lat="43.35219" lon="5.56629">
        <ele>616.822998</ele>
        <time>2009-11-22T08:41:11Z</time>
      </trkpt>
      <trkpt lat="43.3523" lon="5.56623">
        <ele>618.2648926</ele>
        <time>2009-11-22T08:41:18Z</time>
      </trkpt>
      <trkpt lat="43.35235" lon="5.56625">
        <ele>619.7070313</ele>
        <time>2009-11-22T08:41:22Z</time>
      </trkpt>
      <trkpt lat="43.35245" lon="5.56639">
        <ele>622.1103516</ele>
        <time>2009-11-22T08:41:32Z</time>
      </trkpt>
      <trkpt lat="43.35252" lon="5.56652">
        <ele>624.032959</ele>
        <time>2009-11-22T08:41:40Z</time>
      </trkpt>
      <trkpt lat="43.35252" lon="5.56666">
        <ele>625.4748535</ele>
        <time>2009-11-22T08:41:46Z</time>
      </trkpt>
      <trkpt lat="43.35252" lon="5.5669">
        <ele>625.4748535</ele>
        <time>2009-11-22T08:41:53Z</time>
      </trkpt>
      <trkpt lat="43.35244" lon="5.56714">
        <ele>624.5136719</ele>
        <time>2009-11-22T08:41:58Z</time>
      </trkpt>
      <trkpt lat="43.35236" lon="5.56729">
        <ele>622.5910645</ele>
        <time>2009-11-22T08:42:01Z</time>
      </trkpt>
      <trkpt lat="43.35239" lon="5.5674">
        <ele>621.6296387</ele>
        <time>2009-11-22T08:42:05Z</time>
      </trkpt>
      <trkpt lat="43.35241" lon="5.56741">
        <ele>621.6296387</ele>
        <time>2009-11-22T08:42:06Z</time>
      </trkpt>
      <trkpt lat="43.35261" lon="5.56758">
        <ele>621.6296387</ele>
        <time>2009-11-22T08:42:13Z</time>
      </trkpt>
      <trkpt lat="43.35276" lon="5.56768">
        <ele>621.1491699</ele>
        <time>2009-11-22T08:42:17Z</time>
      </trkpt>
      <trkpt lat="43.35285" lon="5.56773">
        <ele>620.668457</ele>
        <time>2009-11-22T08:42:19Z</time>
      </trkpt>
      <trkpt lat="43.35307" lon="5.56779">
        <ele>620.1877441</ele>
        <time>2009-11-22T08:42:23Z</time>
      </trkpt>
      <trkpt lat="43.35349" lon="5.56779">
        <ele>620.1877441</ele>
        <time>2009-11-22T08:42:30Z</time>
      </trkpt>
      <trkpt lat="43.35354" lon="5.56779">
        <ele>619.7070313</ele>
        <time>2009-11-22T08:42:31Z</time>
      </trkpt>
      <trkpt lat="43.35381" lon="5.56777">
        <ele>618.7456055</ele>
        <time>2009-11-22T08:42:36Z</time>
      </trkpt>
      <trkpt lat="43.35386" lon="5.56774">
        <ele>618.7456055</ele>
        <time>2009-11-22T08:42:37Z</time>
      </trkpt>
      <trkpt lat="43.35393" lon="5.5677">
        <ele>618.7456055</ele>
        <time>2009-11-22T08:42:39Z</time>
      </trkpt>
      <trkpt lat="43.3542" lon="5.56749">
        <ele>617.7841797</ele>
        <time>2009-11-22T08:42:45Z</time>
      </trkpt>
      <trkpt lat="43.35447" lon="5.56731">
        <ele>618.2648926</ele>
        <time>2009-11-22T08:42:51Z</time>
      </trkpt>
      <trkpt lat="43.35461" lon="5.56717">
        <ele>618.2648926</ele>
        <time>2009-11-22T08:42:55Z</time>
      </trkpt>
      <trkpt lat="43.3549" lon="5.56706">
        <ele>616.3422852</ele>
        <time>2009-11-22T08:43:00Z</time>
      </trkpt>
      <trkpt lat="43.35503" lon="5.56702">
        <ele>615.8618164</ele>
        <time>2009-11-22T08:43:02Z</time>
      </trkpt>
      <trkpt lat="43.35534" lon="5.56699">
        <ele>615.3811035</ele>
        <time>2009-11-22T08:43:08Z</time>
      </trkpt>
      <trkpt lat="43.35569" lon="5.56704">
        <ele>615.8618164</ele>
        <time>2009-11-22T08:43:15Z</time>
      </trkpt>
      <trkpt lat="43.35617" lon="5.56728">
        <ele>616.3422852</ele>
        <time>2009-11-22T08:43:24Z</time>
      </trkpt>
      <trkpt lat="43.35639" lon="5.56743">
        <ele>616.3422852</ele>
        <time>2009-11-22T08:43:28Z</time>
      </trkpt>
      <trkpt lat="43.35657" lon="5.56767">
        <ele>615.8618164</ele>
        <time>2009-11-22T08:43:32Z</time>
      </trkpt>
      <trkpt lat="43.35669" lon="5.56798">
        <ele>614.4196777</ele>
        <time>2009-11-22T08:43:36Z</time>
      </trkpt>
      <trkpt lat="43.35691" lon="5.56828">
        <ele>612.4970703</ele>
        <time>2009-11-22T08:43:41Z</time>
      </trkpt>
      <trkpt lat="43.35701" lon="5.56849">
        <ele>611.0551758</ele>
        <time>2009-11-22T08:43:44Z</time>
      </trkpt>
      <trkpt lat="43.35704" lon="5.56866">
        <ele>610.09375</ele>
        <time>2009-11-22T08:43:46Z</time>
      </trkpt>
      <trkpt lat="43.35711" lon="5.5691">
        <ele>608.1713867</ele>
        <time>2009-11-22T08:43:51Z</time>
      </trkpt>
      <trkpt lat="43.35712" lon="5.56935">
        <ele>608.1713867</ele>
        <time>2009-11-22T08:43:54Z</time>
      </trkpt>
      <trkpt lat="43.35714" lon="5.56956">
        <ele>607.6906738</ele>
        <time>2009-11-22T08:43:57Z</time>
      </trkpt>
      <trkpt lat="43.35722" lon="5.56959">
        <ele>607.2099609</ele>
        <time>2009-11-22T08:44:01Z</time>
      </trkpt>
      <trkpt lat="43.35734" lon="5.5695">
        <ele>605.7680664</ele>
        <time>2009-11-22T08:44:04Z</time>
      </trkpt>
      <trkpt lat="43.35759" lon="5.56945">
        <ele>601.4418945</ele>
        <time>2009-11-22T08:44:09Z</time>
      </trkpt>
      <trkpt lat="43.35765" lon="5.56947">
        <ele>600.4807129</ele>
        <time>2009-11-22T08:44:11Z</time>
      </trkpt>
      <trkpt lat="43.35774" lon="5.56956">
        <ele>599.0385742</ele>
        <time>2009-11-22T08:44:15Z</time>
      </trkpt>
      <trkpt lat="43.35786" lon="5.56973">
        <ele>596.635498</ele>
        <time>2009-11-22T08:44:20Z</time>
      </trkpt>
      <trkpt lat="43.35795" lon="5.5697">
        <ele>594.7126465</ele>
        <time>2009-11-22T08:44:23Z</time>
      </trkpt>
      <trkpt lat="43.358" lon="5.5696">
        <ele>593.7514648</ele>
        <time>2009-11-22T08:44:25Z</time>
      </trkpt>
      <trkpt lat="43.35815" lon="5.56926">
        <ele>589.90625</ele>
        <time>2009-11-22T08:44:30Z</time>
      </trkpt>
      <trkpt lat="43.35825" lon="5.56913">
        <ele>587.0219727</ele>
        <time>2009-11-22T08:44:33Z</time>
      </trkpt>
      <trkpt lat="43.35842" lon="5.56911">
        <ele>583.6574707</ele>
        <time>2009-11-22T08:44:38Z</time>
      </trkpt>
      <trkpt lat="43.35852" lon="5.56908">
        <ele>581.7348633</ele>
        <time>2009-11-22T08:44:42Z</time>
      </trkpt>
      <trkpt lat="43.35854" lon="5.56899">
        <ele>580.2929688</ele>
        <time>2009-11-22T08:44:46Z</time>
      </trkpt>
      <trkpt lat="43.35853" lon="5.56872">
        <ele>576.4477539</ele>
        <time>2009-11-22T08:44:51Z</time>
      </trkpt>
      <trkpt lat="43.35867" lon="5.56864">
        <ele>572.6025391</ele>
        <time>2009-11-22T08:44:55Z</time>
      </trkpt>
      <trkpt lat="43.35877" lon="5.56869">
        <ele>571.1604004</ele>
        <time>2009-11-22T08:44:57Z</time>
      </trkpt>
      <trkpt lat="43.35904" lon="5.56883">
        <ele>566.3537598</ele>
        <time>2009-11-22T08:45:02Z</time>
      </trkpt>
      <trkpt lat="43.35922" lon="5.56903">
        <ele>563.9504395</ele>
        <time>2009-11-22T08:45:06Z</time>
      </trkpt>
      <trkpt lat="43.35926" lon="5.56926">
        <ele>562.5085449</ele>
        <time>2009-11-22T08:45:09Z</time>
      </trkpt>
      <trkpt lat="43.35923" lon="5.56942">
        <ele>562.0280762</ele>
        <time>2009-11-22T08:45:11Z</time>
      </trkpt>
      <trkpt lat="43.35927" lon="5.56984">
        <ele>560.5859375</ele>
        <time>2009-11-22T08:45:16Z</time>
      </trkpt>
      <trkpt lat="43.35942" lon="5.57007">
        <ele>562.0280762</ele>
        <time>2009-11-22T08:45:20Z</time>
      </trkpt>
      <trkpt lat="43.35957" lon="5.57046">
        <ele>564.4311523</ele>
        <time>2009-11-22T08:45:27Z</time>
      </trkpt>
      <trkpt lat="43.35958" lon="5.57051">
        <ele>564.9118652</ele>
        <time>2009-11-22T08:45:28Z</time>
      </trkpt>
      <trkpt lat="43.35965" lon="5.57096">
        <ele>567.3151855</ele>
        <time>2009-11-22T08:45:36Z</time>
      </trkpt>
      <trkpt lat="43.3597" lon="5.57131">
        <ele>566.8344727</ele>
        <time>2009-11-22T08:45:41Z</time>
      </trkpt>
      <trkpt lat="43.35984" lon="5.5716">
        <ele>565.873291</ele>
        <time>2009-11-22T08:45:45Z</time>
      </trkpt>
      <trkpt lat="43.36014" lon="5.57199">
        <ele>565.873291</ele>
        <time>2009-11-22T08:45:52Z</time>
      </trkpt>
      <trkpt lat="43.36036" lon="5.57241">
        <ele>562.9892578</ele>
        <time>2009-11-22T08:45:58Z</time>
      </trkpt>
      <trkpt lat="43.36054" lon="5.57284">
        <ele>559.144043</ele>
        <time>2009-11-22T08:46:02Z</time>
      </trkpt>
      <trkpt lat="43.3608" lon="5.57338">
        <ele>554.3374023</ele>
        <time>2009-11-22T08:46:07Z</time>
      </trkpt>
      <trkpt lat="43.36094" lon="5.57372">
        <ele>551.934082</ele>
        <time>2009-11-22T08:46:10Z</time>
      </trkpt>
      <trkpt lat="43.36102" lon="5.57428">
        <ele>549.5307617</ele>
        <time>2009-11-22T08:46:15Z</time>
      </trkpt>
      <trkpt lat="43.36102" lon="5.57439">
        <ele>549.5307617</ele>
        <time>2009-11-22T08:46:16Z</time>
      </trkpt>
      <trkpt lat="43.36095" lon="5.57513">
        <ele>548.0888672</ele>
        <time>2009-11-22T08:46:23Z</time>
      </trkpt>
      <trkpt lat="43.36098" lon="5.57547">
        <ele>546.6468506</ele>
        <time>2009-11-22T08:46:27Z</time>
      </trkpt>
      <trkpt lat="43.36097" lon="5.57561">
        <ele>546.1662598</ele>
        <time>2009-11-22T08:46:30Z</time>
      </trkpt>
      <trkpt lat="43.36094" lon="5.57566">
        <ele>546.6468506</ele>
        <time>2009-11-22T08:46:34Z</time>
      </trkpt>
      <trkpt lat="43.36087" lon="5.57567">
        <ele>548.0888672</ele>
        <time>2009-11-22T08:46:41Z</time>
      </trkpt>
      <trkpt lat="43.36086" lon="5.57568">
        <ele>549.0500488</ele>
        <time>2009-11-22T08:46:45Z</time>
      </trkpt>
      <trkpt lat="43.36081" lon="5.57574">
        <ele>550.0114746</ele>
        <time>2009-11-22T08:46:50Z</time>
      </trkpt>
      <trkpt lat="43.36068" lon="5.57586">
        <ele>553.3759766</ele>
        <time>2009-11-22T08:47:00Z</time>
      </trkpt>
      <trkpt lat="43.36056" lon="5.57599">
        <ele>556.7407227</ele>
        <time>2009-11-22T08:47:10Z</time>
      </trkpt>
      <trkpt lat="43.36049" lon="5.57608">
        <ele>558.1828613</ele>
        <time>2009-11-22T08:47:16Z</time>
      </trkpt>
      <trkpt lat="43.36041" lon="5.57624">
        <ele>560.1052246</ele>
        <time>2009-11-22T08:47:24Z</time>
      </trkpt>
      <trkpt lat="43.36035" lon="5.57644">
        <ele>560.5859375</ele>
        <time>2009-11-22T08:47:30Z</time>
      </trkpt>
      <trkpt lat="43.36028" lon="5.57661">
        <ele>561.0666504</ele>
        <time>2009-11-22T08:47:35Z</time>
      </trkpt>
      <trkpt lat="43.36024" lon="5.57663">
        <ele>561.5473633</ele>
        <time>2009-11-22T08:47:37Z</time>
      </trkpt>
      <trkpt lat="43.36016" lon="5.57659">
        <ele>563.4699707</ele>
        <time>2009-11-22T08:47:42Z</time>
      </trkpt>
      <trkpt lat="43.36002" lon="5.57652">
        <ele>566.8344727</ele>
        <time>2009-11-22T08:47:51Z</time>
      </trkpt>
      <trkpt lat="43.3599" lon="5.57649">
        <ele>570.1989746</ele>
        <time>2009-11-22T08:48:00Z</time>
      </trkpt>
      <trkpt lat="43.35977" lon="5.57646">
        <ele>572.6025391</ele>
        <time>2009-11-22T08:48:08Z</time>
      </trkpt>
      <trkpt lat="43.35965" lon="5.57638">
        <ele>573.083252</ele>
        <time>2009-11-22T08:48:15Z</time>
      </trkpt>
      <trkpt lat="43.35957" lon="5.57626">
        <ele>573.5639648</ele>
        <time>2009-11-22T08:48:21Z</time>
      </trkpt>
      <trkpt lat="43.35954" lon="5.57622">
        <ele>574.0444336</ele>
        <time>2009-11-22T08:48:23Z</time>
      </trkpt>
      <trkpt lat="43.3594" lon="5.5762">
        <ele>573.083252</ele>
        <time>2009-11-22T08:48:28Z</time>
      </trkpt>
      <trkpt lat="43.35922" lon="5.57616">
        <ele>570.6796875</ele>
        <time>2009-11-22T08:48:33Z</time>
      </trkpt>
      <trkpt lat="43.35902" lon="5.57611">
        <ele>567.3151855</ele>
        <time>2009-11-22T08:48:37Z</time>
      </trkpt>
      <trkpt lat="43.35894" lon="5.57604">
        <ele>565.873291</ele>
        <time>2009-11-22T08:48:39Z</time>
      </trkpt>
      <trkpt lat="43.35879" lon="5.57588">
        <ele>563.9504395</ele>
        <time>2009-11-22T08:48:44Z</time>
      </trkpt>
      <trkpt lat="43.35855" lon="5.57567">
        <ele>562.0280762</ele>
        <time>2009-11-22T08:48:51Z</time>
      </trkpt>
      <trkpt lat="43.35849" lon="5.57562">
        <ele>562.0280762</ele>
        <time>2009-11-22T08:48:55Z</time>
      </trkpt>
      <trkpt lat="43.35838" lon="5.57555">
        <ele>561.5473633</ele>
        <time>2009-11-22T08:49:00Z</time>
      </trkpt>
      <trkpt lat="43.3582" lon="5.57547">
        <ele>562.0280762</ele>
        <time>2009-11-22T08:49:05Z</time>
      </trkpt>
      <trkpt lat="43.35803" lon="5.57541">
        <ele>560.5859375</ele>
        <time>2009-11-22T08:49:09Z</time>
      </trkpt>
      <trkpt lat="43.35783" lon="5.57534">
        <ele>560.5859375</ele>
        <time>2009-11-22T08:49:13Z</time>
      </trkpt>
      <trkpt lat="43.35765" lon="5.57533">
        <ele>561.0666504</ele>
        <time>2009-11-22T08:49:18Z</time>
      </trkpt>
      <trkpt lat="43.35762" lon="5.57532">
        <ele>561.0666504</ele>
        <time>2009-11-22T08:49:19Z</time>
      </trkpt>
      <trkpt lat="43.3575" lon="5.57527">
        <ele>560.1052246</ele>
        <time>2009-11-22T08:49:23Z</time>
      </trkpt>
      <trkpt lat="43.35742" lon="5.57515">
        <ele>558.6633301</ele>
        <time>2009-11-22T08:49:26Z</time>
      </trkpt>
      <trkpt lat="43.35732" lon="5.57491">
        <ele>555.298584</ele>
        <time>2009-11-22T08:49:30Z</time>
      </trkpt>
      <trkpt lat="43.3573" lon="5.57486">
        <ele>553.8566895</ele>
        <time>2009-11-22T08:49:31Z</time>
      </trkpt>
      <trkpt lat="43.35724" lon="5.57464">
        <ele>550.9726563</ele>
        <time>2009-11-22T08:49:35Z</time>
      </trkpt>
      <trkpt lat="43.35722" lon="5.57445">
        <ele>549.0500488</ele>
        <time>2009-11-22T08:49:39Z</time>
      </trkpt>
      <trkpt lat="43.3572" lon="5.57432">
        <ele>546.1662598</ele>
        <time>2009-11-22T08:49:44Z</time>
      </trkpt>
      <trkpt lat="43.35719" lon="5.57428">
        <ele>545.6855469</ele>
        <time>2009-11-22T08:49:45Z</time>
      </trkpt>
      <trkpt lat="43.35717" lon="5.57408">
        <ele>541.84021</ele>
        <time>2009-11-22T08:49:50Z</time>
      </trkpt>
      <trkpt lat="43.35709" lon="5.57395">
        <ele>538.9562988</ele>
        <time>2009-11-22T08:49:54Z</time>
      </trkpt>
      <trkpt lat="43.35701" lon="5.57388">
        <ele>535.5915527</ele>
        <time>2009-11-22T08:49:58Z</time>
      </trkpt>
      <trkpt lat="43.35693" lon="5.57386">
        <ele>533.6689453</ele>
        <time>2009-11-22T08:50:02Z</time>
      </trkpt>
      <trkpt lat="43.35687" lon="5.57388">
        <ele>531.2657471</ele>
        <time>2009-11-22T08:50:06Z</time>
      </trkpt>
      <trkpt lat="43.35681" lon="5.57387">
        <ele>532.2270508</ele>
        <time>2009-11-22T08:50:14Z</time>
      </trkpt>
      <trkpt lat="43.35679" lon="5.57387">
        <ele>532.7077637</ele>
        <time>2009-11-22T08:50:19Z</time>
      </trkpt>
      <trkpt lat="43.35676" lon="5.57389">
        <ele>532.7077637</ele>
        <time>2009-11-22T08:50:23Z</time>
      </trkpt>
      <trkpt lat="43.35666" lon="5.57392">
        <ele>530.3044434</ele>
        <time>2009-11-22T08:50:28Z</time>
      </trkpt>
      <trkpt lat="43.35647" lon="5.57398">
        <ele>526.9398193</ele>
        <time>2009-11-22T08:50:33Z</time>
      </trkpt>
      <trkpt lat="43.35637" lon="5.57404">
        <ele>525.4978027</ele>
        <time>2009-11-22T08:50:37Z</time>
      </trkpt>
      <trkpt lat="43.35635" lon="5.57405">
        <ele>524.0557861</ele>
        <time>2009-11-22T08:50:41Z</time>
      </trkpt>
      <trkpt lat="43.35635" lon="5.57406">
        <ele>524.0557861</ele>
        <time>2009-11-22T08:50:42Z</time>
      </trkpt>
      <trkpt lat="43.35628" lon="5.5742">
        <ele>520.6912842</ele>
        <time>2009-11-22T08:50:48Z</time>
      </trkpt>
      <trkpt lat="43.35623" lon="5.5743">
        <ele>518.7685547</ele>
        <time>2009-11-22T08:50:52Z</time>
      </trkpt>
      <trkpt lat="43.35614" lon="5.57433">
        <ele>515.8846436</ele>
        <time>2009-11-22T08:50:57Z</time>
      </trkpt>
      <trkpt lat="43.35601" lon="5.57427">
        <ele>513.0007324</ele>
        <time>2009-11-22T08:51:01Z</time>
      </trkpt>
      <trkpt lat="43.35586" lon="5.57435">
        <ele>510.1166992</ele>
        <time>2009-11-22T08:51:05Z</time>
      </trkpt>
      <trkpt lat="43.35571" lon="5.57449">
        <ele>507.713501</ele>
        <time>2009-11-22T08:51:09Z</time>
      </trkpt>
      <trkpt lat="43.3556" lon="5.57466">
        <ele>504.8294678</ele>
        <time>2009-11-22T08:51:15Z</time>
      </trkpt>
      <trkpt lat="43.35548" lon="5.5748">
        <ele>501.4648438</ele>
        <time>2009-11-22T08:51:20Z</time>
      </trkpt>
      <trkpt lat="43.35533" lon="5.57484">
        <ele>499.0615234</ele>
        <time>2009-11-22T08:51:24Z</time>
      </trkpt>
      <trkpt lat="43.35512" lon="5.57482">
        <ele>495.2161865</ele>
        <time>2009-11-22T08:51:29Z</time>
      </trkpt>
      <trkpt lat="43.35495" lon="5.57473">
        <ele>492.8129883</ele>
        <time>2009-11-22T08:51:33Z</time>
      </trkpt>
      <trkpt lat="43.35481" lon="5.57467">
        <ele>489.9290771</ele>
        <time>2009-11-22T08:51:37Z</time>
      </trkpt>
      <trkpt lat="43.35474" lon="5.57462">
        <ele>488.4871826</ele>
        <time>2009-11-22T08:51:39Z</time>
      </trkpt>
      <trkpt lat="43.35461" lon="5.57451">
        <ele>485.6030273</ele>
        <time>2009-11-22T08:51:43Z</time>
      </trkpt>
      <trkpt lat="43.35449" lon="5.57433">
        <ele>482.7192383</ele>
        <time>2009-11-22T08:51:47Z</time>
      </trkpt>
      <trkpt lat="43.35433" lon="5.57405">
        <ele>479.835083</ele>
        <time>2009-11-22T08:51:53Z</time>
      </trkpt>
      <trkpt lat="43.35426" lon="5.57375">
        <ele>477.4318848</ele>
        <time>2009-11-22T08:51:58Z</time>
      </trkpt>
      <trkpt lat="43.35424" lon="5.57361">
        <ele>476.4705811</ele>
        <time>2009-11-22T08:52:00Z</time>
      </trkpt>
      <trkpt lat="43.35419" lon="5.57337">
        <ele>474.5479736</ele>
        <time>2009-11-22T08:52:04Z</time>
      </trkpt>
      <trkpt lat="43.35407" lon="5.57296">
        <ele>471.1833496</ele>
        <time>2009-11-22T08:52:10Z</time>
      </trkpt>
      <trkpt lat="43.35391" lon="5.57282">
        <ele>469.741333</ele>
        <time>2009-11-22T08:52:15Z</time>
      </trkpt>
      <trkpt lat="43.35387" lon="5.57283">
        <ele>470.2219238</ele>
        <time>2009-11-22T08:52:16Z</time>
      </trkpt>
      <trkpt lat="43.35363" lon="5.57296">
        <ele>471.6639404</ele>
        <time>2009-11-22T08:52:23Z</time>
      </trkpt>
      <trkpt lat="43.35339" lon="5.5731">
        <ele>474.0672607</ele>
        <time>2009-11-22T08:52:30Z</time>
      </trkpt>
      <trkpt lat="43.3532" lon="5.57311">
        <ele>475.5092773</ele>
        <time>2009-11-22T08:52:35Z</time>
      </trkpt>
      <trkpt lat="43.35302" lon="5.57316">
        <ele>477.4318848</ele>
        <time>2009-11-22T08:52:41Z</time>
      </trkpt>
      <trkpt lat="43.35289" lon="5.57332">
        <ele>477.9124756</ele>
        <time>2009-11-22T08:52:46Z</time>
      </trkpt>
      <trkpt lat="43.3527" lon="5.57345">
        <ele>479.3544922</ele>
        <time>2009-11-22T08:52:52Z</time>
      </trkpt>
      <trkpt lat="43.35239" lon="5.57353">
        <ele>480.7966309</ele>
        <time>2009-11-22T08:53:00Z</time>
      </trkpt>
      <trkpt lat="43.35217" lon="5.57353">
        <ele>480.7966309</ele>
        <time>2009-11-22T08:53:06Z</time>
      </trkpt>
      <trkpt lat="43.35193" lon="5.57355">
        <ele>480.7966309</ele>
        <time>2009-11-22T08:53:11Z</time>
      </trkpt>
      <trkpt lat="43.35178" lon="5.57355">
        <ele>481.7578125</ele>
        <time>2009-11-22T08:53:15Z</time>
      </trkpt>
      <trkpt lat="43.35148" lon="5.57345">
        <ele>484.1611328</ele>
        <time>2009-11-22T08:53:25Z</time>
      </trkpt>
      <trkpt lat="43.35126" lon="5.57337">
        <ele>485.1224365</ele>
        <time>2009-11-22T08:53:32Z</time>
      </trkpt>
      <trkpt lat="43.35113" lon="5.57321">
        <ele>483.6804199</ele>
        <time>2009-11-22T08:53:38Z</time>
      </trkpt>
      <trkpt lat="43.35105" lon="5.57311">
        <ele>482.2385254</ele>
        <time>2009-11-22T08:53:42Z</time>
      </trkpt>
      <trkpt lat="43.35091" lon="5.57307">
        <ele>479.835083</ele>
        <time>2009-11-22T08:53:46Z</time>
      </trkpt>
      <trkpt lat="43.35074" lon="5.57301">
        <ele>476.4705811</ele>
        <time>2009-11-22T08:53:51Z</time>
      </trkpt>
      <trkpt lat="43.35056" lon="5.57298">
        <ele>472.6253662</ele>
        <time>2009-11-22T08:53:57Z</time>
      </trkpt>
      <trkpt lat="43.35052" lon="5.573">
        <ele>471.1833496</ele>
        <time>2009-11-22T08:53:59Z</time>
      </trkpt>
      <trkpt lat="43.35054" lon="5.57307">
        <ele>469.2607422</ele>
        <time>2009-11-22T08:54:03Z</time>
      </trkpt>
      <trkpt lat="43.35056" lon="5.57309">
        <ele>468.7800293</ele>
        <time>2009-11-22T08:54:04Z</time>
      </trkpt>
      <trkpt lat="43.35075" lon="5.57328">
        <ele>465.8961182</ele>
        <time>2009-11-22T08:54:10Z</time>
      </trkpt>
      <trkpt lat="43.35086" lon="5.57345">
        <ele>463.012085</ele>
        <time>2009-11-22T08:54:14Z</time>
      </trkpt>
      <trkpt lat="43.35089" lon="5.57355">
        <ele>461.5701904</ele>
        <time>2009-11-22T08:54:16Z</time>
      </trkpt>
      <trkpt lat="43.35094" lon="5.57377">
        <ele>458.2055664</ele>
        <time>2009-11-22T08:54:22Z</time>
      </trkpt>
      <trkpt lat="43.35095" lon="5.5738">
        <ele>457.7249756</ele>
        <time>2009-11-22T08:54:23Z</time>
      </trkpt>
      <trkpt lat="43.35106" lon="5.57397">
        <ele>453.8796387</ele>
        <time>2009-11-22T08:54:30Z</time>
      </trkpt>
      <trkpt lat="43.35114" lon="5.57401">
        <ele>451.9570313</ele>
        <time>2009-11-22T08:54:33Z</time>
      </trkpt>
      <trkpt lat="43.35117" lon="5.57406">
        <ele>449.5537109</ele>
        <time>2009-11-22T08:54:36Z</time>
      </trkpt>
      <trkpt lat="43.35111" lon="5.5741">
        <ele>448.5924072</ele>
        <time>2009-11-22T08:54:40Z</time>
      </trkpt>
      <trkpt lat="43.35093" lon="5.57408">
        <ele>445.2276611</ele>
        <time>2009-11-22T08:54:46Z</time>
      </trkpt>
      <trkpt lat="43.35081" lon="5.57407">
        <ele>442.8244629</ele>
        <time>2009-11-22T08:54:50Z</time>
      </trkpt>
      <trkpt lat="43.35066" lon="5.57393">
        <ele>438.979126</ele>
        <time>2009-11-22T08:54:56Z</time>
      </trkpt>
      <trkpt lat="43.35057" lon="5.57376">
        <ele>435.614502</ele>
        <time>2009-11-22T08:55:01Z</time>
      </trkpt>
      <trkpt lat="43.35045" lon="5.57363">
        <ele>432.7307129</ele>
        <time>2009-11-22T08:55:06Z</time>
      </trkpt>
      <trkpt lat="43.35034" lon="5.57354">
        <ele>431.2885742</ele>
        <time>2009-11-22T08:55:10Z</time>
      </trkpt>
      <trkpt lat="43.35031" lon="5.57351">
        <ele>430.8079834</ele>
        <time>2009-11-22T08:55:11Z</time>
      </trkpt>
      <trkpt lat="43.35018" lon="5.57352">
        <ele>429.8465576</ele>
        <time>2009-11-22T08:55:17Z</time>
      </trkpt>
      <trkpt lat="43.35016" lon="5.57353">
        <ele>429.3659668</ele>
        <time>2009-11-22T08:55:18Z</time>
      </trkpt>
      <trkpt lat="43.35008" lon="5.57362">
        <ele>428.4046631</ele>
        <time>2009-11-22T08:55:23Z</time>
      </trkpt>
      <trkpt lat="43.35006" lon="5.57364">
        <ele>428.4046631</ele>
        <time>2009-11-22T08:55:28Z</time>
      </trkpt>
      <trkpt lat="43.35001" lon="5.57369">
        <ele>427.4433594</ele>
        <time>2009-11-22T08:55:32Z</time>
      </trkpt>
      <trkpt lat="43.34993" lon="5.57378">
        <ele>425.0401611</ele>
        <time>2009-11-22T08:55:39Z</time>
      </trkpt>
      <trkpt lat="43.34981" lon="5.57385">
        <ele>421.1948242</ele>
        <time>2009-11-22T08:55:47Z</time>
      </trkpt>
      <trkpt lat="43.34972" lon="5.57393">
        <ele>419.2722168</ele>
        <time>2009-11-22T08:55:53Z</time>
      </trkpt>
      <trkpt lat="43.34967" lon="5.57395">
        <ele>417.8302002</ele>
        <time>2009-11-22T08:55:58Z</time>
      </trkpt>
      <trkpt lat="43.34957" lon="5.57402">
        <ele>415.4268799</ele>
        <time>2009-11-22T08:56:05Z</time>
      </trkpt>
      <trkpt lat="43.34947" lon="5.57406">
        <ele>411.1009521</ele>
        <time>2009-11-22T08:56:13Z</time>
      </trkpt>
      <trkpt lat="43.34943" lon="5.57408">
        <ele>410.1396484</ele>
        <time>2009-11-22T08:56:17Z</time>
      </trkpt>
      <trkpt lat="43.34939" lon="5.57409">
        <ele>407.2556152</ele>
        <time>2009-11-22T08:56:24Z</time>
      </trkpt>
      <trkpt lat="43.34936" lon="5.5741">
        <ele>405.8137207</ele>
        <time>2009-11-22T08:56:28Z</time>
      </trkpt>
      <trkpt lat="43.3493" lon="5.5741">
        <ele>402.4490967</ele>
        <time>2009-11-22T08:56:34Z</time>
      </trkpt>
      <trkpt lat="43.34922" lon="5.57412">
        <ele>400.5264893</ele>
        <time>2009-11-22T08:56:40Z</time>
      </trkpt>
      <trkpt lat="43.34909" lon="5.57409">
        <ele>397.6424561</ele>
        <time>2009-11-22T08:56:46Z</time>
      </trkpt>
      <trkpt lat="43.34903" lon="5.57404">
        <ele>395.7198486</ele>
        <time>2009-11-22T08:56:49Z</time>
      </trkpt>
      <trkpt lat="43.34898" lon="5.57399">
        <ele>392.8359375</ele>
        <time>2009-11-22T08:56:55Z</time>
      </trkpt>
      <trkpt lat="43.34897" lon="5.57399">
        <ele>392.8359375</ele>
        <time>2009-11-22T08:56:56Z</time>
      </trkpt>
      <trkpt lat="43.34889" lon="5.57397">
        <ele>389.4711914</ele>
        <time>2009-11-22T08:57:03Z</time>
      </trkpt>
      <trkpt lat="43.34881" lon="5.57394">
        <ele>385.6259766</ele>
        <time>2009-11-22T08:57:10Z</time>
      </trkpt>
      <trkpt lat="43.34871" lon="5.57391">
        <ele>383.7032471</ele>
        <time>2009-11-22T08:57:17Z</time>
      </trkpt>
      <trkpt lat="43.34861" lon="5.57386">
        <ele>379.8580322</ele>
        <time>2009-11-22T08:57:25Z</time>
      </trkpt>
      <trkpt lat="43.34853" lon="5.57385">
        <ele>377.454834</ele>
        <time>2009-11-22T08:57:31Z</time>
      </trkpt>
      <trkpt lat="43.34846" lon="5.57384">
        <ele>374.5708008</ele>
        <time>2009-11-22T08:57:38Z</time>
      </trkpt>
      <trkpt lat="43.34836" lon="5.57382">
        <ele>372.6481934</ele>
        <time>2009-11-22T08:57:45Z</time>
      </trkpt>
      <trkpt lat="43.34826" lon="5.57383">
        <ele>371.6868896</ele>
        <time>2009-11-22T08:57:50Z</time>
      </trkpt>
      <trkpt lat="43.34814" lon="5.57386">
        <ele>370.244873</ele>
        <time>2009-11-22T08:57:55Z</time>
      </trkpt>
      <trkpt lat="43.34807" lon="5.57386">
        <ele>369.2836914</ele>
        <time>2009-11-22T08:57:57Z</time>
      </trkpt>
      <trkpt lat="43.34793" lon="5.5738">
        <ele>365.4383545</ele>
        <time>2009-11-22T08:58:02Z</time>
      </trkpt>
      <trkpt lat="43.34782" lon="5.57371">
        <ele>361.1124268</ele>
        <time>2009-11-22T08:58:07Z</time>
      </trkpt>
      <trkpt lat="43.34774" lon="5.57365">
        <ele>358.2283936</ele>
        <time>2009-11-22T08:58:12Z</time>
      </trkpt>
      <trkpt lat="43.34764" lon="5.57358">
        <ele>354.3831787</ele>
        <time>2009-11-22T08:58:17Z</time>
      </trkpt>
      <trkpt lat="43.34757" lon="5.57352">
        <ele>350.5378418</ele>
        <time>2009-11-22T08:58:22Z</time>
      </trkpt>
      <trkpt lat="43.34753" lon="5.5736">
        <ele>349.0958252</ele>
        <time>2009-11-22T08:58:26Z</time>
      </trkpt>
      <trkpt lat="43.34753" lon="5.57382">
        <ele>346.2120361</ele>
        <time>2009-11-22T08:58:31Z</time>
      </trkpt>
      <trkpt lat="43.34753" lon="5.57391">
        <ele>344.7700195</ele>
        <time>2009-11-22T08:58:33Z</time>
      </trkpt>
      <trkpt lat="43.34756" lon="5.57421">
        <ele>342.3666992</ele>
        <time>2009-11-22T08:58:38Z</time>
      </trkpt>
      <trkpt lat="43.34757" lon="5.57431">
        <ele>340.9246826</ele>
        <time>2009-11-22T08:58:42Z</time>
      </trkpt>
      <trkpt lat="43.34757" lon="5.57438">
        <ele>339.9633789</ele>
        <time>2009-11-22T08:58:46Z</time>
      </trkpt>
      <trkpt lat="43.34756" lon="5.57444">
        <ele>338.5214844</ele>
        <time>2009-11-22T08:58:50Z</time>
      </trkpt>
      <trkpt lat="43.34753" lon="5.57448">
        <ele>337.5600586</ele>
        <time>2009-11-22T08:58:54Z</time>
      </trkpt>
      <trkpt lat="43.34752" lon="5.57453">
        <ele>336.1181641</ele>
        <time>2009-11-22T08:58:59Z</time>
      </trkpt>
      <trkpt lat="43.34746" lon="5.5746">
        <ele>334.1954346</ele>
        <time>2009-11-22T08:59:05Z</time>
      </trkpt>
      <trkpt lat="43.34741" lon="5.57464">
        <ele>331.3115234</ele>
        <time>2009-11-22T08:59:11Z</time>
      </trkpt>
      <trkpt lat="43.34735" lon="5.57469">
        <ele>329.388916</ele>
        <time>2009-11-22T08:59:16Z</time>
      </trkpt>
      <trkpt lat="43.34719" lon="5.57481">
        <ele>326.5048828</ele>
        <time>2009-11-22T08:59:21Z</time>
      </trkpt>
      <trkpt lat="43.34705" lon="5.57478">
        <ele>322.1789551</ele>
        <time>2009-11-22T08:59:26Z</time>
      </trkpt>
      <trkpt lat="43.34693" lon="5.57477">
        <ele>318.3336182</ele>
        <time>2009-11-22T08:59:31Z</time>
      </trkpt>
      <trkpt lat="43.34691" lon="5.57479">
        <ele>316.8917236</ele>
        <time>2009-11-22T08:59:35Z</time>
      </trkpt>
      <trkpt lat="43.34687" lon="5.57485">
        <ele>315.9304199</ele>
        <time>2009-11-22T08:59:41Z</time>
      </trkpt>
      <trkpt lat="43.34681" lon="5.57494">
        <ele>312.5657959</ele>
        <time>2009-11-22T08:59:49Z</time>
      </trkpt>
      <trkpt lat="43.34674" lon="5.57498">
        <ele>309.2011719</ele>
        <time>2009-11-22T08:59:55Z</time>
      </trkpt>
      <trkpt lat="43.34666" lon="5.57502">
        <ele>308.720459</ele>
        <time>2009-11-22T08:59:59Z</time>
      </trkpt>
      <trkpt lat="43.34662" lon="5.57505">
        <ele>305.8366699</ele>
        <time>2009-11-22T09:00:05Z</time>
      </trkpt>
      <trkpt lat="43.34655" lon="5.57508">
        <ele>303.9139404</ele>
        <time>2009-11-22T09:00:11Z</time>
      </trkpt>
      <trkpt lat="43.34655" lon="5.57508">
        <ele>303.4332275</ele>
        <time>2009-11-22T09:00:12Z</time>
      </trkpt>
      <trkpt lat="43.34652" lon="5.57512">
        <ele>302.9525146</ele>
        <time>2009-11-22T09:00:17Z</time>
      </trkpt>
      <trkpt lat="43.34651" lon="5.57513">
        <ele>301.991333</ele>
        <time>2009-11-22T09:00:19Z</time>
      </trkpt>
      <trkpt lat="43.34649" lon="5.5752">
        <ele>301.0299072</ele>
        <time>2009-11-22T09:00:26Z</time>
      </trkpt>
      <trkpt lat="43.34644" lon="5.57523">
        <ele>299.1072998</ele>
        <time>2009-11-22T09:00:31Z</time>
      </trkpt>
      <trkpt lat="43.34635" lon="5.5753">
        <ele>297.1846924</ele>
        <time>2009-11-22T09:00:36Z</time>
      </trkpt>
      <trkpt lat="43.34619" lon="5.57541">
        <ele>292.3781738</ele>
        <time>2009-11-22T09:00:43Z</time>
      </trkpt>
      <trkpt lat="43.34611" lon="5.57548">
        <ele>290.9361572</ele>
        <time>2009-11-22T09:00:47Z</time>
      </trkpt>
      <trkpt lat="43.34602" lon="5.57552">
        <ele>288.532959</ele>
        <time>2009-11-22T09:00:52Z</time>
      </trkpt>
      <trkpt lat="43.34601" lon="5.57552">
        <ele>288.532959</ele>
        <time>2009-11-22T09:00:53Z</time>
      </trkpt>
      <trkpt lat="43.34592" lon="5.57562">
        <ele>285.6488037</ele>
        <time>2009-11-22T09:00:57Z</time>
      </trkpt>
      <trkpt lat="43.34571" lon="5.5758">
        <ele>281.8035889</ele>
        <time>2009-11-22T09:01:01Z</time>
      </trkpt>
      <trkpt lat="43.34551" lon="5.57591">
        <ele>278.9196777</ele>
        <time>2009-11-22T09:01:04Z</time>
      </trkpt>
      <trkpt lat="43.34528" lon="5.57606">
        <ele>276.5163574</ele>
        <time>2009-11-22T09:01:07Z</time>
      </trkpt>
      <trkpt lat="43.34492" lon="5.57617">
        <ele>274.59375</ele>
        <time>2009-11-22T09:01:12Z</time>
      </trkpt>
      <trkpt lat="43.34468" lon="5.57613">
        <ele>274.1130371</ele>
        <time>2009-11-22T09:01:16Z</time>
      </trkpt>
      <trkpt lat="43.3444" lon="5.57623">
        <ele>274.1130371</ele>
        <time>2009-11-22T09:01:21Z</time>
      </trkpt>
      <trkpt lat="43.34426" lon="5.5764">
        <ele>273.6324463</ele>
        <time>2009-11-22T09:01:24Z</time>
      </trkpt>
      <trkpt lat="43.34411" lon="5.57683">
        <ele>270.7484131</ele>
        <time>2009-11-22T09:01:29Z</time>
      </trkpt>
      <trkpt lat="43.34414" lon="5.57708">
        <ele>268.8258057</ele>
        <time>2009-11-22T09:01:33Z</time>
      </trkpt>
      <trkpt lat="43.34424" lon="5.5772">
        <ele>266.9031982</ele>
        <time>2009-11-22T09:01:36Z</time>
      </trkpt>
      <trkpt lat="43.34435" lon="5.5774">
        <ele>264.0192871</ele>
        <time>2009-11-22T09:01:41Z</time>
      </trkpt>
      <trkpt lat="43.34419" lon="5.57743">
        <ele>261.6159668</ele>
        <time>2009-11-22T09:01:44Z</time>
      </trkpt>
      <trkpt lat="43.34405" lon="5.57742">
        <ele>260.1739502</ele>
        <time>2009-11-22T09:01:46Z</time>
      </trkpt>
      <trkpt lat="43.34377" lon="5.57737">
        <ele>255.8480225</ele>
        <time>2009-11-22T09:01:50Z</time>
      </trkpt>
      <trkpt lat="43.34351" lon="5.57739">
        <ele>252.9639893</ele>
        <time>2009-11-22T09:01:54Z</time>
      </trkpt>
      <trkpt lat="43.34331" lon="5.57758">
        <ele>248.1575928</ele>
        <time>2009-11-22T09:01:57Z</time>
      </trkpt>
      <trkpt lat="43.34324" lon="5.57767">
        <ele>246.7154541</ele>
        <time>2009-11-22T09:01:58Z</time>
      </trkpt>
      <trkpt lat="43.34276" lon="5.57837">
        <ele>235.6602783</ele>
        <time>2009-11-22T09:02:06Z</time>
      </trkpt>
      <trkpt lat="43.34247" lon="5.57875">
        <ele>229.4117432</ele>
        <time>2009-11-22T09:02:11Z</time>
      </trkpt>
      <trkpt lat="43.34246" lon="5.57894">
        <ele>226.527832</ele>
        <time>2009-11-22T09:02:15Z</time>
      </trkpt>
      <trkpt lat="43.34262" lon="5.57906">
        <ele>225.0859375</ele>
        <time>2009-11-22T09:02:18Z</time>
      </trkpt>
      <trkpt lat="43.34274" lon="5.57916">
        <ele>224.6052246</ele>
        <time>2009-11-22T09:02:20Z</time>
      </trkpt>
      <trkpt lat="43.34309" lon="5.57962">
        <ele>223.6437988</ele>
        <time>2009-11-22T09:02:26Z</time>
      </trkpt>
      <trkpt lat="43.3434" lon="5.58029">
        <ele>223.6437988</ele>
        <time>2009-11-22T09:02:33Z</time>
      </trkpt>
      <trkpt lat="43.34375" lon="5.58101">
        <ele>223.163208</ele>
        <time>2009-11-22T09:02:41Z</time>
      </trkpt>
      <trkpt lat="43.34405" lon="5.58136">
        <ele>223.163208</ele>
        <time>2009-11-22T09:02:46Z</time>
      </trkpt>
      <trkpt lat="43.34449" lon="5.58173">
        <ele>223.163208</ele>
        <time>2009-11-22T09:02:52Z</time>
      </trkpt>
      <trkpt lat="43.34492" lon="5.58213">
        <ele>222.2017822</ele>
        <time>2009-11-22T09:02:58Z</time>
      </trkpt>
      <trkpt lat="43.34546" lon="5.58265">
        <ele>221.7211914</ele>
        <time>2009-11-22T09:03:06Z</time>
      </trkpt>
      <trkpt lat="43.34571" lon="5.583">
        <ele>223.163208</ele>
        <time>2009-11-22T09:03:11Z</time>
      </trkpt>
      <trkpt lat="43.34596" lon="5.58337">
        <ele>226.0471191</ele>
        <time>2009-11-22T09:03:17Z</time>
      </trkpt>
      <trkpt lat="43.34612" lon="5.58364">
        <ele>228.4504395</ele>
        <time>2009-11-22T09:03:22Z</time>
      </trkpt>
      <trkpt lat="43.34621" lon="5.58387">
        <ele>228.9311523</ele>
        <time>2009-11-22T09:03:26Z</time>
      </trkpt>
      <trkpt lat="43.34639" lon="5.58436">
        <ele>230.3730469</ele>
        <time>2009-11-22T09:03:35Z</time>
      </trkpt>
      <trkpt lat="43.34644" lon="5.58446">
        <ele>230.3730469</ele>
        <time>2009-11-22T09:03:37Z</time>
      </trkpt>
      <trkpt lat="43.34675" lon="5.5849">
        <ele>232.2957764</ele>
        <time>2009-11-22T09:03:47Z</time>
      </trkpt>
      <trkpt lat="43.34687" lon="5.58525">
        <ele>230.8537598</ele>
        <time>2009-11-22T09:03:51Z</time>
      </trkpt>
      <trkpt lat="43.34687" lon="5.58536">
        <ele>230.8537598</ele>
        <time>2009-11-22T09:03:52Z</time>
      </trkpt>
      <trkpt lat="43.34687" lon="5.5862">
        <ele>225.0859375</ele>
        <time>2009-11-22T09:03:59Z</time>
      </trkpt>
      <trkpt lat="43.34672" lon="5.58684">
        <ele>221.2406006</ele>
        <time>2009-11-22T09:04:04Z</time>
      </trkpt>
      <trkpt lat="43.34658" lon="5.58749">
        <ele>216.9146729</ele>
        <time>2009-11-22T09:04:09Z</time>
      </trkpt>
      <trkpt lat="43.34639" lon="5.58787">
        <ele>212.588623</ele>
        <time>2009-11-22T09:04:13Z</time>
      </trkpt>
      <trkpt lat="43.34629" lon="5.58804">
        <ele>211.6274414</ele>
        <time>2009-11-22T09:04:15Z</time>
      </trkpt>
      <trkpt lat="43.34609" lon="5.58858">
        <ele>208.2628174</ele>
        <time>2009-11-22T09:04:20Z</time>
      </trkpt>
      <trkpt lat="43.34609" lon="5.5887">
        <ele>207.3013916</ele>
        <time>2009-11-22T09:04:21Z</time>
      </trkpt>
      <trkpt lat="43.34609" lon="5.58938">
        <ele>202.9754639</ele>
        <time>2009-11-22T09:04:26Z</time>
      </trkpt>
      <trkpt lat="43.34605" lon="5.58966">
        <ele>201.5335693</ele>
        <time>2009-11-22T09:04:28Z</time>
      </trkpt>
      <trkpt lat="43.34583" lon="5.59031">
        <ele>197.6882324</ele>
        <time>2009-11-22T09:04:33Z</time>
      </trkpt>
      <trkpt lat="43.34565" lon="5.591">
        <ele>193.8430176</ele>
        <time>2009-11-22T09:04:38Z</time>
      </trkpt>
      <trkpt lat="43.3455" lon="5.59149">
        <ele>189.5169678</ele>
        <time>2009-11-22T09:04:42Z</time>
      </trkpt>
      <trkpt lat="43.34514" lon="5.59216">
        <ele>184.7105713</ele>
        <time>2009-11-22T09:04:48Z</time>
      </trkpt>
      <trkpt lat="43.34476" lon="5.59283">
        <ele>180.3845215</ele>
        <time>2009-11-22T09:04:54Z</time>
      </trkpt>
      <trkpt lat="43.34463" lon="5.59329">
        <ele>177.5006104</ele>
        <time>2009-11-22T09:04:58Z</time>
      </trkpt>
      <trkpt lat="43.34469" lon="5.59351">
        <ele>176.0585938</ele>
        <time>2009-11-22T09:05:00Z</time>
      </trkpt>
      <trkpt lat="43.3449" lon="5.59375">
        <ele>173.6552734</ele>
        <time>2009-11-22T09:05:03Z</time>
      </trkpt>
      <trkpt lat="43.34509" lon="5.59384">
        <ele>172.6939697</ele>
        <time>2009-11-22T09:05:05Z</time>
      </trkpt>
      <trkpt lat="43.34557" lon="5.5941">
        <ele>170.2906494</ele>
        <time>2009-11-22T09:05:10Z</time>
      </trkpt>
      <trkpt lat="43.3458" lon="5.59434">
        <ele>169.3294678</ele>
        <time>2009-11-22T09:05:13Z</time>
      </trkpt>
      <trkpt lat="43.34604" lon="5.59477">
        <ele>167.8873291</ele>
        <time>2009-11-22T09:05:17Z</time>
      </trkpt>
      <trkpt lat="43.34601" lon="5.59504">
        <ele>165.9647217</ele>
        <time>2009-11-22T09:05:19Z</time>
      </trkpt>
      <trkpt lat="43.34598" lon="5.59622">
        <ele>159.2354736</ele>
        <time>2009-11-22T09:05:27Z</time>
      </trkpt>
      <trkpt lat="43.346" lon="5.59709">
        <ele>154.4289551</ele>
        <time>2009-11-22T09:05:33Z</time>
      </trkpt>
      <trkpt lat="43.34603" lon="5.59745">
        <ele>152.5063477</ele>
        <time>2009-11-22T09:05:36Z</time>
      </trkpt>
      <trkpt lat="43.34616" lon="5.59772">
        <ele>150.5836182</ele>
        <time>2009-11-22T09:05:40Z</time>
      </trkpt>
      <trkpt lat="43.34626" lon="5.59777">
        <ele>151.5449219</ele>
        <time>2009-11-22T09:05:42Z</time>
      </trkpt>
      <trkpt lat="43.34639" lon="5.59782">
        <ele>152.0257568</ele>
        <time>2009-11-22T09:05:45Z</time>
      </trkpt>
      <trkpt lat="43.34652" lon="5.59795">
        <ele>153.4676514</ele>
        <time>2009-11-22T09:05:49Z</time>
      </trkpt>
      <trkpt lat="43.34655" lon="5.598">
        <ele>153.9483643</ele>
        <time>2009-11-22T09:05:51Z</time>
      </trkpt>
      <trkpt lat="43.34657" lon="5.59804">
        <ele>153.9483643</ele>
        <time>2009-11-22T09:05:54Z</time>
      </trkpt>
      <trkpt lat="43.34673" lon="5.5981">
        <ele>154.9095459</ele>
        <time>2009-11-22T09:06:01Z</time>
      </trkpt>
      <trkpt lat="43.34694" lon="5.59821">
        <ele>155.3902588</ele>
        <time>2009-11-22T09:06:05Z</time>
      </trkpt>
      <trkpt lat="43.34725" lon="5.59836">
        <ele>155.3902588</ele>
        <time>2009-11-22T09:06:10Z</time>
      </trkpt>
      <trkpt lat="43.34748" lon="5.5985">
        <ele>155.3902588</ele>
        <time>2009-11-22T09:06:14Z</time>
      </trkpt>
      <trkpt lat="43.34799" lon="5.59869">
        <ele>155.8709717</ele>
        <time>2009-11-22T09:06:22Z</time>
      </trkpt>
      <trkpt lat="43.34852" lon="5.59892">
        <ele>155.8709717</ele>
        <time>2009-11-22T09:06:30Z</time>
      </trkpt>
      <trkpt lat="43.34893" lon="5.59906">
        <ele>161.1582031</ele>
        <time>2009-11-22T09:06:37Z</time>
      </trkpt>
    </trkseg>
  </trk>
</gpx>